Observation data for Fort Chadbourne on 08/14/2019      Previous  Date  Next       Current Mesonet Observations  Soil Data  Daily Summary Page  Observations in Plain Language
KCH1 140500Z 06009KT 30/18 A2999 RMK A01 T03040180  RH  048%=      5-min Rain = 0
KCH1 140501Z 06009KT 30/18 A2999 RMK A01 T03040180  RH  047%=      5-min Rain = 0
KCH1 140502Z 06010KT 30/18 A2999 RMK A01 T03040180  RH  047%=      5-min Rain = 0
KCH1 140503Z 06009KT 31/18 A2999 RMK A01 T03050180  RH  047%=      5-min Rain = 0
KCH1 140504Z 06008KT 31/18 A2999 RMK A01 T03050180  RH  047%=      5-min Rain = 0
KCH1 140505Z 06008KT 30/18 A2999 RMK A01 T03040181  RH  047%=      5-min Rain = 0
KCH1 140506Z 07007KT 30/18 A2999 RMK A01 T03040180  RH  048%=      5-min Rain = 0
KCH1 140507Z 07008KT 30/18 A2999 RMK A01 T03030180  RH  048%=      5-min Rain = 0
KCH1 140508Z 07008KT 30/18 A2999 RMK A01 T03030180  RH  048%=      5-min Rain = 0
KCH1 140509Z 07006KT 30/18 A30 RMK A01 T03030180  RH  048%=      5-min Rain = 0
KCH1 140510Z 07007KT 30/18 A30 RMK A01 T03020180  RH  048%=      5-min Rain = 0
KCH1 140526Z 07009KT 30/18 A30 RMK A01 T02970183  RH  050%=      5-min Rain = 0
KCH1 140527Z 06008KT 30/18 A30 RMK A01 T02970183  RH  050%=      5-min Rain = 0
KCH1 140528Z 07009KT 30/18 A30 RMK A01 T02960183  RH  051%=      5-min Rain = 0
KCH1 140529Z 06008KT 30/18 A30 RMK A01 T02960183  RH  051%=      5-min Rain = 0
KCH1 140530Z 06009KT 30/18 A30 RMK A01 T02970183  RH  050%=      5-min Rain = 0
KCH1 140531Z 06008KT 30/18 A30 RMK A01 T02970183  RH  050%=      5-min Rain = 0
KCH1 140532Z 06008KT 30/18 A30 RMK A01 T02970183  RH  050%=      5-min Rain = 0
KCH1 140533Z 06008KT 30/18 A30 RMK A01 T02970183  RH  050%=      5-min Rain = 0
KCH1 140534Z 06008KT 30/18 A30 RMK A01 T02970183  RH  050%=      5-min Rain = 0
KCH1 140535Z 06009KT 30/18 A30 RMK A01 T02960183  RH  051%=      5-min Rain = 0
KCH1 140536Z 06010KT 30/18 A30 RMK A01 T02960183  RH  050%=      5-min Rain = 0
KCH1 140537Z 05008KT 30/18 A30 RMK A01 T02970183  RH  050%=      5-min Rain = 0
KCH1 140538Z 06010KT 30/18 A30 RMK A01 T02970182  RH  050%=      5-min Rain = 0
KCH1 140539Z 06009KT 30/18 A30 RMK A01 T02970182  RH  050%=      5-min Rain = 0
KCH1 140540Z 06008KT 30/18 A30 RMK A01 T02980182  RH  050%=      5-min Rain = 0
KCH1 140541Z 07008KT 30/18 A30 RMK A01 T02980182  RH  050%=      5-min Rain = 0
KCH1 140542Z 07008KT 30/18 A30 RMK A01 T02980183  RH  050%=      5-min Rain = 0
KCH1 140543Z 06007KT 30/18 A30 RMK A01 T02980183  RH  050%=      5-min Rain = 0
KCH1 140544Z 06009KT 30/18 A30 RMK A01 T02980183  RH  050%=      5-min Rain = 0
KCH1 140545Z 06008KT 30/18 A30 RMK A01 T02980183  RH  050%=      5-min Rain = 0
KCH1 140546Z 07009KT 30/18 A30 RMK A01 T02980183  RH  050%=      5-min Rain = 0
KCH1 140547Z 06008KT 30/18 A30 RMK A01 T02980182  RH  050%=      5-min Rain = 0
KCH1 140548Z 07008KT 30/18 A30 RMK A01 T02990182  RH  050%=      5-min Rain = 0
KCH1 140549Z 07010KT 30/18 A30 RMK A01 T02990182  RH  049%=      5-min Rain = 0
KCH1 140550Z 06009KT 30/18 A30 RMK A01 T02990182  RH  049%=      5-min Rain = 0
KCH1 140551Z 07009KT 30/18 A30 RMK A01 T03000181  RH  049%=      5-min Rain = 0
KCH1 140552Z 07009KT 30/18 A3001 RMK A01 T03000181  RH  049%=      5-min Rain = 0
KCH1 140553Z 06007KT 30/18 A3001 RMK A01 T03010182  RH  049%=      5-min Rain = 0
KCH1 140554Z 07009KT 30/18 A3001 RMK A01 T03000182  RH  049%=      5-min Rain = 0
KCH1 140555Z 07008KT 30/18 A3001 RMK A01 T02990182  RH  049%=      5-min Rain = 0
KCH1 140556Z 06010KT 30/18 A30 RMK A01 T02990182  RH  050%=      5-min Rain = 0
KCH1 140557Z 06010KT 30/18 A3001 RMK A01 T02990182  RH  050%=      5-min Rain = 0
KCH1 140558Z 06010KT 30/18 A3001 RMK A01 T02980182  RH  050%=      5-min Rain = 0
KCH1 140559Z 06009KT 30/18 A3001 RMK A01 T02990182  RH  050%=      5-min Rain = 0
KCH1 140600Z 06009KT 30/18 A3001 RMK A01 T02990183  RH  050%=      5-min Rain = 0
KCH1 140601Z 06009KT 30/18 A3001 RMK A01 T02980182  RH  050%=      5-min Rain = 0
KCH1 140602Z 07010KT 30/18 A3001 RMK A01 T02980182  RH  050%=      5-min Rain = 0
KCH1 140603Z 07008KT 30/18 A3001 RMK A01 T02970182  RH  050%=      5-min Rain = 0
KCH1 140604Z 08007KT 30/18 A3001 RMK A01 T02970182  RH  050%=      5-min Rain = 0
KCH1 140605Z 08007KT 30/18 A3001 RMK A01 T02970183  RH  050%=      5-min Rain = 0
KCH1 140606Z 07007KT 30/18 A3001 RMK A01 T02970183  RH  051%=      5-min Rain = 0
KCH1 140607Z 06008KT 30/18 A3001 RMK A01 T02960183  RH  051%=      5-min Rain = 0
KCH1 140608Z 06008KT 30/18 A3001 RMK A01 T02960184  RH  051%=      5-min Rain = 0
KCH1 140609Z 07009KT 30/18 A3001 RMK A01 T02950184  RH  051%=      5-min Rain = 0
KCH1 140610Z 07008KT 30/19 A3001 RMK A01 T02950185  RH  051%=      5-min Rain = 0
KCH1 140611Z 07008KT 30/19 A3001 RMK A01 T02950185  RH  051%=      5-min Rain = 0
KCH1 140612Z 07007KT 30/19 A3001 RMK A01 T02950185  RH  052%=      5-min Rain = 0
KCH1 140613Z 08007KT 30/19 A3001 RMK A01 T02960186  RH  052%=      5-min Rain = 0
KCH1 140614Z 07007KT 30/19 A3001 RMK A01 T02950186  RH  052%=      5-min Rain = 0
KCH1 140615Z 07008KT 30/19 A3001 RMK A01 T02950187  RH  052%=      5-min Rain = 0
KCH1 140616Z 06008KT 29/19 A3001 RMK A01 T02940186  RH  052%=      5-min Rain = 0
KCH1 140617Z 06009KT 29/19 A3001 RMK A01 T02940187  RH  052%=      5-min Rain = 0
KCH1 140618Z 06008KT 29/19 A3001 RMK A01 T02940187  RH  053%=      5-min Rain = 0
KCH1 140619Z 06008KT 29/19 A3001 RMK A01 T02940187  RH  053%=      5-min Rain = 0
KCH1 140620Z 07008KT 29/19 A3001 RMK A01 T02930187  RH  053%=      5-min Rain = 0
KCH1 140621Z 07007KT 29/19 A3001 RMK A01 T02930188  RH  053%=      5-min Rain = 0
KCH1 140622Z 06006KT 29/19 A3001 RMK A01 T02930187  RH  053%=      5-min Rain = 0
KCH1 140623Z 06008KT 29/19 A3001 RMK A01 T02920188  RH  053%=      5-min Rain = 0
KCH1 140624Z 07009KT 29/19 A3001 RMK A01 T02920188  RH  053%=      5-min Rain = 0
KCH1 140625Z 07007KT 29/19 A3001 RMK A01 T02920188  RH  053%=      5-min Rain = 0
KCH1 140626Z 07008KT 29/19 A3001 RMK A01 T02920188  RH  054%=      5-min Rain = 0
KCH1 140627Z 07009KT 29/19 A3001 RMK A01 T02920188  RH  053%=      5-min Rain = 0
KCH1 140628Z 07007KT 29/19 A3001 RMK A01 T02920187  RH  053%=      5-min Rain = 0
KCH1 140629Z 07009KT 29/19 A3001 RMK A01 T02920187  RH  053%=      5-min Rain = 0
KCH1 140630Z 07009KT 29/19 A3001 RMK A01 T02930186  RH  053%=      5-min Rain = 0
KCH1 140631Z 06009KT 29/19 A3001 RMK A01 T02930186  RH  052%=      5-min Rain = 0
KCH1 140632Z 07007KT 29/19 A3001 RMK A01 T02940186  RH  052%=      5-min Rain = 0
KCH1 140633Z 07008KT 29/19 A3001 RMK A01 T02940186  RH  052%=      5-min Rain = 0
KCH1 140634Z 06009KT 29/19 A3001 RMK A01 T02940185  RH  052%=      5-min Rain = 0
KCH1 140635Z 07009KT 29/18 A3001 RMK A01 T02940184  RH  051%=      5-min Rain = 0
KCH1 140636Z 08007KT 30/19 A3001 RMK A01 T02950185  RH  051%=      5-min Rain = 0
KCH1 140637Z 08009KT 30/18 A3001 RMK A01 T02950184  RH  051%=      5-min Rain = 0
KCH1 140638Z 08007KT 30/18 A3001 RMK A01 T02950182  RH  051%=      5-min Rain = 0
KCH1 140639Z 09006KT 30/18 A3001 RMK A01 T02960183  RH  051%=      5-min Rain = 0
KCH1 140640Z 08006KT 30/18 A3001 RMK A01 T02960183  RH  051%=      5-min Rain = 0
KCH1 140641Z 09006KT 30/18 A3001 RMK A01 T02960183  RH  051%=      5-min Rain = 0
KCH1 140642Z 09006KT 30/18 A3001 RMK A01 T02950183  RH  051%=      5-min Rain = 0
KCH1 140643Z 09005KT 30/18 A3001 RMK A01 T02950183  RH  051%=      5-min Rain = 0
KCH1 140644Z 08006KT 30/18 A3001 RMK A01 T02950183  RH  051%=      5-min Rain = 0
KCH1 140645Z 08007KT 29/18 A3001 RMK A01 T02940183  RH  051%=      5-min Rain = 0
KCH1 140646Z 08006KT 29/18 A3001 RMK A01 T02940182  RH  051%=      5-min Rain = 0
KCH1 140647Z 08005KT 29/18 A3001 RMK A01 T02940182  RH  051%=      5-min Rain = 0
KCH1 140648Z 09006KT 29/18 A3001 RMK A01 T02940182  RH  051%=      5-min Rain = 0
KCH1 140649Z 08006KT 29/18 A3001 RMK A01 T02940182  RH  051%=      5-min Rain = 0
KCH1 140650Z 08006KT 29/18 A3001 RMK A01 T02930182  RH  051%=      5-min Rain = 0
KCH1 140651Z 08007KT 29/18 A3001 RMK A01 T02930182  RH  051%=      5-min Rain = 0
KCH1 140652Z 07007KT 29/18 A3001 RMK A01 T02920182  RH  051%=      5-min Rain = 0
KCH1 140653Z 06007KT 29/18 A3001 RMK A01 T02920182  RH  051%=      5-min Rain = 0
KCH1 140654Z 06008KT 29/18 A30 RMK A01 T02910181  RH  051%=      5-min Rain = 0
KCH1 140655Z 06009KT 29/18 A30 RMK A01 T02920181  RH  051%=      5-min Rain = 0
KCH1 140656Z 06011KT 29/18 A30 RMK A01 T02920181  RH  051%=      5-min Rain = 0
KCH1 140657Z 06011KT 29/18 A30 RMK A01 T02920180  RH  051%=      5-min Rain = 0
KCH1 140658Z 07012KT 29/18 A30 RMK A01 T02930180  RH  051%=      5-min Rain = 0
KCH1 140659Z 07011KT 29/18 A30 RMK A01 T02930180  RH  051%=      5-min Rain = 0
KCH1 140700Z 06011KT 29/18 A30 RMK A01 T02940180  RH  051%=      5-min Rain = 0
KCH1 140701Z 06011KT 29/18 A30 RMK A01 T02930180  RH  051%=      5-min Rain = 0
KCH1 140702Z 07010KT 29/18 A30 RMK A01 T02940180  RH  050%=      5-min Rain = 0
KCH1 140703Z 07009KT 29/18 A30 RMK A01 T02940180  RH  050%=      5-min Rain = 0
KCH1 140704Z 07007KT 29/18 A30 RMK A01 T02940180  RH  050%=      5-min Rain = 0
KCH1 140705Z 09004KT 29/18 A30 RMK A01 T02930180  RH  051%=      5-min Rain = 0
KCH1 140706Z 14004KT 29/18 A30 RMK A01 T02920180  RH  051%=      5-min Rain = 0
KCH1 140707Z 16004KT 29/18 A30 RMK A01 T02910180  RH  051%=      5-min Rain = 0
KCH1 140708Z 16004KT 29/18 A30 RMK A01 T02910181  RH  051%=      5-min Rain = 0
KCH1 140709Z 12003KT 29/18 A30 RMK A01 T02900180  RH  052%=      5-min Rain = 0
KCH1 140710Z 10005KT 29/18 A30 RMK A01 T02900180  RH  052%=      5-min Rain = 0
KCH1 140711Z 08005KT 29/18 A30 RMK A01 T02890180  RH  052%=      5-min Rain = 0
KCH1 140712Z 08005KT 29/18 A30 RMK A01 T02900180  RH  052%=      5-min Rain = 0
KCH1 140713Z 07007KT 29/18 A30 RMK A01 T02900180  RH  052%=      5-min Rain = 0
KCH1 140714Z 07008KT 29/18 A30 RMK A01 T02900180  RH  052%=      5-min Rain = 0
KCH1 140715Z 07008KT 29/18 A30 RMK A01 T02900180  RH  052%=      5-min Rain = 0
KCH1 140716Z 07008KT 29/18 A30 RMK A01 T02890180  RH  052%=      5-min Rain = 0
KCH1 140717Z 07007KT 29/18 A30 RMK A01 T02890180  RH  052%=      5-min Rain = 0
KCH1 140718Z 07008KT 29/18 A30 RMK A01 T02890180  RH  052%=      5-min Rain = 0
KCH1 140719Z 07006KT 29/18 A30 RMK A01 T02880180  RH  052%=      5-min Rain = 0
KCH1 140720Z 09003KT 29/18 A30 RMK A01 T02880180  RH  052%=      5-min Rain = 0
KCH1 140721Z 15004KT 29/18 A30 RMK A01 T02870180  RH  052%=      5-min Rain = 0
KCH1 140722Z 16004KT 29/18 A30 RMK A01 T02870180  RH  053%=      5-min Rain = 0
KCH1 140723Z 16005KT 29/18 A30 RMK A01 T02860179  RH  053%=      5-min Rain = 0
KCH1 140724Z 16005KT 29/18 A30 RMK A01 T02860179  RH  052%=      5-min Rain = 0
KCH1 140725Z 14005KT 29/18 A30 RMK A01 T02870179  RH  052%=      5-min Rain = 0
KCH1 140726Z 11003KT 29/18 A30 RMK A01 T02870178  RH  052%=      5-min Rain = 0
KCH1 140727Z 08004KT 29/18 A30 RMK A01 T02880179  RH  052%=      5-min Rain = 0
KCH1 140728Z 07006KT 29/18 A30 RMK A01 T02890179  RH  052%=      5-min Rain = 0
KCH1 140729Z 06006KT 29/18 A30 RMK A01 T02880180  RH  052%=      5-min Rain = 0
KCH1 140730Z 06008KT 29/18 A30 RMK A01 T02860180  RH  052%=      5-min Rain = 0
KCH1 140731Z 06007KT 29/18 A30 RMK A01 T02850180  RH  053%=      5-min Rain = 0
KCH1 140732Z 06008KT 29/18 A30 RMK A01 T02850180  RH  053%=      5-min Rain = 0
KCH1 140733Z 06008KT 28/18 A30 RMK A01 T02840180  RH  053%=      5-min Rain = 0
KCH1 140734Z 06007KT 28/18 A30 RMK A01 T02840180  RH  053%=      5-min Rain = 0
KCH1 140735Z 08003KT 28/18 A30 RMK A01 T02840180  RH  053%=      5-min Rain = 0
KCH1 140736Z 17004KT 28/18 A30 RMK A01 T02830180  RH  054%=      5-min Rain = 0
KCH1 140737Z 17005KT 28/18 A30 RMK A01 T02820180  RH  054%=      5-min Rain = 0
KCH1 140738Z 16003KT 28/18 A30 RMK A01 T02820179  RH  053%=      5-min Rain = 0
KCH1 140739Z 13002KT 28/18 A30 RMK A01 T02820178  RH  053%=      5-min Rain = 0
KCH1 140740Z 10003KT 28/18 A30 RMK A01 T02840178  RH  053%=      5-min Rain = 0
KCH1 140741Z 09005KT 29/18 A30 RMK A01 T02850179  RH  053%=      5-min Rain = 0
KCH1 140742Z 08006KT 29/18 A30 RMK A01 T02860179  RH  052%=      5-min Rain = 0
KCH1 140743Z 07006KT 29/18 A30 RMK A01 T02860179  RH  052%=      5-min Rain = 0
KCH1 140744Z 07007KT 29/18 A30 RMK A01 T02860179  RH  052%=      5-min Rain = 0
KCH1 140745Z 07007KT 29/18 A30 RMK A01 T02850179  RH  053%=      5-min Rain = 0
KCH1 140746Z 08007KT 28/18 A30 RMK A01 T02840179  RH  053%=      5-min Rain = 0
KCH1 140747Z 08005KT 28/18 A30 RMK A01 T02840179  RH  053%=      5-min Rain = 0
KCH1 140748Z 08004KT 28/18 A30 RMK A01 T02840179  RH  053%=      5-min Rain = 0
KCH1 140749Z 10002KT 28/18 A30 RMK A01 T02830179  RH  053%=      5-min Rain = 0
KCH1 140750Z 11002KT 28/18 A30 RMK A01 T02820179  RH  054%=      5-min Rain = 0
KCH1 140751Z 13002KT 28/18 A30 RMK A01 T02820180  RH  054%=      5-min Rain = 0
KCH1 140752Z 14002KT 28/18 A30 RMK A01 T02810179  RH  054%=      5-min Rain = 0
KCH1 140753Z 14002KT 28/18 A30 RMK A01 T02800179  RH  054%=      5-min Rain = 0
KCH1 140754Z 14003KT 28/18 A30 RMK A01 T02810179  RH  054%=      5-min Rain = 0
KCH1 140755Z 13003KT 28/18 A30 RMK A01 T02810179  RH  054%=      5-min Rain = 0
KCH1 140756Z 10003KT 28/18 A30 RMK A01 T02810178  RH  054%=      5-min Rain = 0
KCH1 140757Z 08005KT 28/18 A30 RMK A01 T02820179  RH  054%=      5-min Rain = 0
KCH1 140758Z 07005KT 28/18 A30 RMK A01 T02820179  RH  054%=      5-min Rain = 0
KCH1 140759Z 06006KT 28/18 A30 RMK A01 T02810180  RH  054%=      5-min Rain = 0
KCH1 140800Z 06006KT 28/18 A30 RMK A01 T02810180  RH  054%=      5-min Rain = 0
KCH1 140801Z 08007KT 28/18 A30 RMK A01 T02800179  RH  054%=      5-min Rain = 0
KCH1 140802Z 07005KT 28/18 A30 RMK A01 T02810179  RH  054%=      5-min Rain = 0
KCH1 140803Z 07005KT 28/18 A30 RMK A01 T02820179  RH  054%=      5-min Rain = 0
KCH1 140804Z 07005KT 28/18 A30 RMK A01 T02820180  RH  054%=      5-min Rain = 0
KCH1 140805Z 06005KT 28/18 A30 RMK A01 T02810180  RH  054%=      5-min Rain = 0
KCH1 140806Z 06005KT 28/18 A30 RMK A01 T02800179  RH  054%=      5-min Rain = 0
KCH1 140807Z 06006KT 28/18 A30 RMK A01 T02790180  RH  055%=      5-min Rain = 0
KCH1 140808Z 06006KT 28/18 A30 RMK A01 T02790180  RH  055%=      5-min Rain = 0
KCH1 140809Z 06005KT 28/18 A30 RMK A01 T02790179  RH  055%=      5-min Rain = 0
KCH1 140810Z 06005KT 28/18 A30 RMK A01 T02790180  RH  055%=      5-min Rain = 0
KCH1 140811Z 07004KT 28/18 A30 RMK A01 T02770180  RH  055%=      5-min Rain = 0
KCH1 140812Z 08002KT 28/18 A30 RMK A01 T02760179  RH  056%=      5-min Rain = 0
KCH1 140813Z 17002KT 28/18 A30 RMK A01 T02750180  RH  056%=      5-min Rain = 0
KCH1 140814Z 18004KT 27/18 A30 RMK A01 T02740180  RH  056%=      5-min Rain = 0
KCH1 140815Z 16003KT 27/18 A30 RMK A01 T02740179  RH  056%=      5-min Rain = 0
KCH1 140816Z 10004KT 27/18 A30 RMK A01 T02740179  RH  056%=      5-min Rain = 0
KCH1 140817Z 08004KT 28/18 A30 RMK A01 T02760179  RH  056%=      5-min Rain = 0
KCH1 140818Z 06005KT 28/18 A30 RMK A01 T02760179  RH  055%=      5-min Rain = 0
KCH1 140819Z 06004KT 28/18 A30 RMK A01 T02770179  RH  055%=      5-min Rain = 0
KCH1 140820Z 06004KT 28/18 A30 RMK A01 T02770179  RH  055%=      5-min Rain = 0
KCH1 140821Z 07004KT 28/18 A30 RMK A01 T02770179  RH  055%=      5-min Rain = 0
KCH1 140822Z 07005KT 28/18 A30 RMK A01 T02770180  RH  055%=      5-min Rain = 0
KCH1 140823Z 07005KT 28/18 A30 RMK A01 T02760180  RH  056%=      5-min Rain = 0
KCH1 140824Z 08004KT 27/18 A30 RMK A01 T02740180  RH  056%=      5-min Rain = 0
KCH1 140825Z 09004KT 27/18 A30 RMK A01 T02730179  RH  056%=      5-min Rain = 0
KCH1 140826Z 08004KT 27/18 A30 RMK A01 T02730179  RH  056%=      5-min Rain = 0
KCH1 140827Z 07005KT 27/18 A30 RMK A01 T02740179  RH  056%=      5-min Rain = 0
KCH1 140828Z 08006KT 27/18 A30 RMK A01 T02740179  RH  056%=      5-min Rain = 0
KCH1 140829Z 08006KT 27/18 A30 RMK A01 T02740179  RH  056%=      5-min Rain = 0
KCH1 140830Z 09006KT 27/18 A30 RMK A01 T02740180  RH  057%=      5-min Rain = 0
KCH1 140831Z 08005KT 27/18 A30 RMK A01 T02740180  RH  056%=      5-min Rain = 0
KCH1 140832Z 08006KT 27/18 A3001 RMK A01 T02740179  RH  056%=      5-min Rain = 0
KCH1 140833Z 09005KT 28/18 A3001 RMK A01 T02750179  RH  056%=      5-min Rain = 0
KCH1 140834Z 09004KT 28/18 A3001 RMK A01 T02760179  RH  056%=      5-min Rain = 0
KCH1 140835Z 08004KT 28/18 A3001 RMK A01 T02760180  RH  056%=      5-min Rain = 0
KCH1 140836Z 08004KT 28/18 A3001 RMK A01 T02760180  RH  056%=      5-min Rain = 0
KCH1 140837Z 08004KT 28/18 A3001 RMK A01 T02760180  RH  056%=      5-min Rain = 0
KCH1 140838Z 09003KT 28/18 A3001 RMK A01 T02760180  RH  056%=      5-min Rain = 0
KCH1 140839Z 09004KT 28/18 A3001 RMK A01 T02750180  RH  056%=      5-min Rain = 0
KCH1 140840Z 09004KT 28/18 A3001 RMK A01 T02750180  RH  056%=      5-min Rain = 0
KCH1 140841Z 08003KT 28/18 A3001 RMK A01 T02750180  RH  056%=      5-min Rain = 0
KCH1 140842Z 08004KT 27/18 A3001 RMK A01 T02740180  RH  056%=      5-min Rain = 0
KCH1 140843Z 07004KT 27/18 A3001 RMK A01 T02740180  RH  057%=      5-min Rain = 0
KCH1 140844Z 07004KT 27/18 A3001 RMK A01 T02730180  RH  057%=      5-min Rain = 0
KCH1 140845Z 07004KT 27/18 A3001 RMK A01 T02720180  RH  057%=      5-min Rain = 0
KCH1 140846Z 07004KT 27/18 A3001 RMK A01 T02710180  RH  057%=      5-min Rain = 0
KCH1 140847Z 07004KT 27/18 A3001 RMK A01 T02710180  RH  058%=      5-min Rain = 0
KCH1 140848Z 07005KT 27/18 A3001 RMK A01 T02700180  RH  058%=      5-min Rain = 0
KCH1 140849Z 07005KT 27/18 A3001 RMK A01 T02690180  RH  058%=      5-min Rain = 0
KCH1 140850Z 07005KT 27/18 A3001 RMK A01 T02690181  RH  058%=      5-min Rain = 0
KCH1 140851Z 07006KT 27/18 A3001 RMK A01 T02680181  RH  059%=      5-min Rain = 0
KCH1 140852Z 07006KT 27/18 A3001 RMK A01 T02670181  RH  059%=      5-min Rain = 0
KCH1 140853Z 07006KT 27/18 A3001 RMK A01 T02660181  RH  059%=      5-min Rain = 0
KCH1 140854Z 07005KT 27/18 A3001 RMK A01 T02660181  RH  059%=      5-min Rain = 0
KCH1 140855Z 07005KT 27/18 A3001 RMK A01 T02660180  RH  059%=      5-min Rain = 0
KCH1 140856Z 07005KT 27/18 A3001 RMK A01 T02670180  RH  059%=      5-min Rain = 0
KCH1 140857Z 08005KT 27/18 A3001 RMK A01 T02670180  RH  059%=      5-min Rain = 0
KCH1 140858Z 07005KT 27/18 A3001 RMK A01 T02670180  RH  059%=      5-min Rain = 0
KCH1 140859Z 07005KT 27/18 A3001 RMK A01 T02670181  RH  059%=      5-min Rain = 0
KCH1 140900Z 07005KT 27/18 A3001 RMK A01 T02670180  RH  059%=      5-min Rain = 0
KCH1 140901Z 07005KT 27/18 A3001 RMK A01 T02670180  RH  059%=      5-min Rain = 0
KCH1 140902Z 07005KT 27/18 A3001 RMK A01 T02680181  RH  059%=      5-min Rain = 0
KCH1 140903Z 07005KT 27/18 A3001 RMK A01 T02680180  RH  059%=      5-min Rain = 0
KCH1 140904Z 07004KT 27/18 A3001 RMK A01 T02680180  RH  059%=      5-min Rain = 0
KCH1 140905Z 07004KT 27/18 A3001 RMK A01 T02680180  RH  059%=      5-min Rain = 0
KCH1 140906Z 07004KT 27/18 A3001 RMK A01 T02680181  RH  059%=      5-min Rain = 0
KCH1 140907Z 07004KT 27/18 A3001 RMK A01 T02680181  RH  059%=      5-min Rain = 0
KCH1 140908Z 07004KT 27/18 A3001 RMK A01 T02670181  RH  059%=      5-min Rain = 0
KCH1 140909Z 07004KT 27/18 A3001 RMK A01 T02670181  RH  059%=      5-min Rain = 0
KCH1 140910Z 07005KT 27/18 A3001 RMK A01 T02670181  RH  059%=      5-min Rain = 0
KCH1 140911Z 07004KT 27/18 A3001 RMK A01 T02660180  RH  059%=      5-min Rain = 0
KCH1 140912Z 07004KT 27/18 A3001 RMK A01 T02670181  RH  059%=      5-min Rain = 0
KCH1 140913Z 08004KT 27/18 A3001 RMK A01 T02670181  RH  059%=      5-min Rain = 0
KCH1 140914Z 07004KT 27/18 A3001 RMK A01 T02670180  RH  059%=      5-min Rain = 0
KCH1 140915Z 07004KT 27/18 A3001 RMK A01 T02670180  RH  059%=      5-min Rain = 0
KCH1 140916Z 08004KT 27/18 A3001 RMK A01 T02670180  RH  059%=      5-min Rain = 0
KCH1 140917Z 08004KT 27/18 A3001 RMK A01 T02670180  RH  059%=      5-min Rain = 0
KCH1 140918Z 09004KT 27/18 A30 RMK A01 T02670180  RH  059%=      5-min Rain = 0
KCH1 140919Z 08004KT 27/18 A30 RMK A01 T02680180  RH  058%=      5-min Rain = 0
KCH1 140920Z 08004KT 27/18 A30 RMK A01 T02680180  RH  058%=      5-min Rain = 0
KCH1 140921Z 08004KT 27/18 A30 RMK A01 T02690180  RH  058%=      5-min Rain = 0
KCH1 140922Z 08004KT 27/18 A30 RMK A01 T02690180  RH  058%=      5-min Rain = 0
KCH1 140923Z 08004KT 27/18 A30 RMK A01 T02690180  RH  058%=      5-min Rain = 0
KCH1 140924Z 08004KT 27/18 A30 RMK A01 T02690180  RH  058%=      5-min Rain = 0
KCH1 140925Z 08004KT 27/18 A30 RMK A01 T02690180  RH  058%=      5-min Rain = 0
KCH1 140926Z 07004KT 27/18 A30 RMK A01 T02680180  RH  059%=      5-min Rain = 0
KCH1 140927Z 07004KT 27/18 A30 RMK A01 T02680180  RH  059%=      5-min Rain = 0
KCH1 140928Z 07003KT 27/18 A30 RMK A01 T02670180  RH  059%=      5-min Rain = 0
KCH1 140929Z 07003KT 27/18 A30 RMK A01 T02670180  RH  059%=      5-min Rain = 0
KCH1 140930Z 07002KT 27/18 A30 RMK A01 T02670180  RH  059%=      5-min Rain = 0
KCH1 140931Z 07002KT 27/18 A30 RMK A01 T02660180  RH  059%=      5-min Rain = 0
KCH1 140932Z 07001KT 27/18 A30 RMK A01 T02660180  RH  059%=      5-min Rain = 0
KCH1 140933Z 06001KT 27/18 A30 RMK A01 T02660180  RH  059%=      5-min Rain = 0
KCH1 140934Z 07001KT 27/18 A30 RMK A01 T02660180  RH  059%=      5-min Rain = 0
KCH1 140935Z 08001KT 27/18 A30 RMK A01 T02660180  RH  059%=      5-min Rain = 0
KCH1 140936Z 09002KT 27/18 A30 RMK A01 T02650180  RH  059%=      5-min Rain = 0
KCH1 140937Z 09002KT 27/18 A30 RMK A01 T02650180  RH  059%=      5-min Rain = 0
KCH1 140938Z 10002KT 27/18 A30 RMK A01 T02660179  RH  059%=      5-min Rain = 0
KCH1 140939Z 10002KT 27/18 A30 RMK A01 T02670180  RH  059%=      5-min Rain = 0
KCH1 140940Z 09002KT 27/18 A30 RMK A01 T02680180  RH  059%=      5-min Rain = 0
KCH1 140941Z 09002KT 27/18 A30 RMK A01 T02680180  RH  058%=      5-min Rain = 0
KCH1 140942Z 09002KT 27/18 A30 RMK A01 T02680180  RH  058%=      5-min Rain = 0
KCH1 140943Z 09002KT 27/18 A30 RMK A01 T02680180  RH  058%=      5-min Rain = 0
KCH1 140944Z 08002KT 27/18 A30 RMK A01 T02680180  RH  059%=      5-min Rain = 0
KCH1 140945Z 08002KT 27/18 A30 RMK A01 T02680180  RH  059%=      5-min Rain = 0
KCH1 140946Z 08003KT 27/18 A3001 RMK A01 T02670180  RH  059%=      5-min Rain = 0
KCH1 140947Z 08003KT 27/18 A3001 RMK A01 T02660180  RH  059%=      5-min Rain = 0
KCH1 140948Z 08003KT 27/18 A3001 RMK A01 T02660180  RH  059%=      5-min Rain = 0
KCH1 140949Z 07003KT 27/18 A3001 RMK A01 T02650180  RH  059%=      5-min Rain = 0
KCH1 140950Z 07003KT 27/18 A3001 RMK A01 T02650180  RH  059%=      5-min Rain = 0
KCH1 140951Z 07003KT 27/18 A3001 RMK A01 T02650180  RH  060%=      5-min Rain = 0
KCH1 140952Z 07003KT 27/18 A3001 RMK A01 T02650180  RH  060%=      5-min Rain = 0
KCH1 140953Z 07003KT 26/18 A3001 RMK A01 T02640180  RH  060%=      5-min Rain = 0
KCH1 140954Z 08003KT 26/18 A3001 RMK A01 T02630180  RH  061%=      5-min Rain = 0
KCH1 140955Z 07004KT 26/18 A3001 RMK A01 T02610181  RH  061%=      5-min Rain = 0
KCH1 140956Z 07004KT 26/18 A3001 RMK A01 T02590181  RH  062%=      5-min Rain = 0
KCH1 140957Z 07004KT 26/18 A3001 RMK A01 T02570181  RH  063%=      5-min Rain = 0
KCH1 140958Z 07004KT 26/18 A3001 RMK A01 T02550181  RH  063%=      5-min Rain = 0
KCH1 140959Z 07005KT 25/18 A3001 RMK A01 T02540181  RH  064%=      5-min Rain = 0
KCH1 141000Z 08004KT 25/18 A3001 RMK A01 T02540181  RH  064%=      5-min Rain = 0
KCH1 141001Z 08005KT 25/18 A3001 RMK A01 T02530181  RH  064%=      5-min Rain = 0
KCH1 141002Z 08006KT 25/18 A3001 RMK A01 T02530181  RH  064%=      5-min Rain = 0
KCH1 141003Z 08006KT 25/18 A3001 RMK A01 T02540181  RH  064%=      5-min Rain = 0
KCH1 141004Z 08006KT 25/18 A3001 RMK A01 T02530181  RH  064%=      5-min Rain = 0
KCH1 141005Z 08006KT 25/18 A3001 RMK A01 T02530181  RH  064%=      5-min Rain = 0
KCH1 141006Z 08006KT 25/18 A3001 RMK A01 T02540181  RH  064%=      5-min Rain = 0
KCH1 141007Z 08006KT 25/18 A3001 RMK A01 T02530181  RH  064%=      5-min Rain = 0
KCH1 141008Z 09005KT 25/18 A3001 RMK A01 T02530181  RH  064%=      5-min Rain = 0
KCH1 141009Z 09005KT 25/18 A3001 RMK A01 T02530181  RH  064%=      5-min Rain = 0
KCH1 141010Z 09006KT 25/18 A3001 RMK A01 T02530181  RH  064%=      5-min Rain = 0
KCH1 141011Z 09006KT 25/18 A3001 RMK A01 T02530181  RH  064%=      5-min Rain = 0
KCH1 141012Z 09005KT 25/18 A3001 RMK A01 T02540181  RH  064%=      5-min Rain = 0
KCH1 141013Z 09005KT 25/18 A3001 RMK A01 T02540181  RH  064%=      5-min Rain = 0
KCH1 141014Z 09004KT 25/18 A3001 RMK A01 T02540180  RH  064%=      5-min Rain = 0
KCH1 141015Z 08005KT 25/18 A3001 RMK A01 T02540181  RH  064%=      5-min Rain = 0
KCH1 141016Z 08005KT 25/18 A3001 RMK A01 T02540181  RH  064%=      5-min Rain = 0
KCH1 141017Z 08005KT 26/18 A3001 RMK A01 T02550181  RH  064%=      5-min Rain = 0
KCH1 141018Z 08005KT 26/18 A3001 RMK A01 T02550181  RH  064%=      5-min Rain = 0
KCH1 141019Z 06005KT 26/18 A3001 RMK A01 T02550181  RH  064%=      5-min Rain = 0
KCH1 141020Z 07006KT 25/18 A3001 RMK A01 T02540181  RH  064%=      5-min Rain = 0
KCH1 141021Z 06006KT 25/18 A3001 RMK A01 T02540181  RH  064%=      5-min Rain = 0
KCH1 141022Z 06006KT 25/18 A3001 RMK A01 T02540181  RH  064%=      5-min Rain = 0
KCH1 141023Z 05006KT 26/18 A3002 RMK A01 T02550181  RH  064%=      5-min Rain = 0
KCH1 141024Z 05008KT 26/18 A3002 RMK A01 T02550181  RH  063%=      5-min Rain = 0
KCH1 141025Z 05008KT 26/18 A3002 RMK A01 T02550182  RH  064%=      5-min Rain = 0
KCH1 141026Z 05009KT 26/18 A3002 RMK A01 T02560183  RH  064%=      5-min Rain = 0
KCH1 141027Z 05009KT 26/19 A3002 RMK A01 T02560185  RH  065%=      5-min Rain = 0
KCH1 141028Z 05007KT 26/19 A3002 RMK A01 T02560187  RH  066%=      5-min Rain = 0
KCH1 141029Z 04006KT 26/19 A3002 RMK A01 T02570188  RH  066%=      5-min Rain = 0
KCH1 141030Z 04006KT 26/19 A3002 RMK A01 T02570189  RH  066%=      5-min Rain = 0
KCH1 141031Z 04007KT 26/19 A3002 RMK A01 T02560193  RH  068%=      5-min Rain = 0
KCH1 141032Z 04006KT 26/20 A3002 RMK A01 T02560195  RH  069%=      5-min Rain = 0
KCH1 141033Z 03005KT 26/20 A3002 RMK A01 T02560197  RH  070%=      5-min Rain = 0
KCH1 141034Z 03006KT 26/20 A3002 RMK A01 T02560198  RH  070%=      5-min Rain = 0
KCH1 141035Z 04006KT 26/20 A3002 RMK A01 T02560199  RH  071%=      5-min Rain = 0
KCH1 141036Z 04005KT 26/20 A3002 RMK A01 T02560200  RH  071%=      5-min Rain = 0
KCH1 141037Z 04004KT 26/20 A3002 RMK A01 T02560202  RH  072%=      5-min Rain = 0
KCH1 141038Z 04005KT 26/20 A3002 RMK A01 T02570202  RH  072%=      5-min Rain = 0
KCH1 141039Z 04005KT 26/20 A3001 RMK A01 T02570204  RH  072%=      5-min Rain = 0
KCH1 141040Z 05004KT 26/20 A3002 RMK A01 T02570204  RH  073%=      5-min Rain = 0
KCH1 141041Z 05005KT 26/20 A3002 RMK A01 T02560204  RH  073%=      5-min Rain = 0
KCH1 141042Z 05005KT 26/21 A3002 RMK A01 T02560205  RH  073%=      5-min Rain = 0
KCH1 141043Z 05005KT 26/21 A3002 RMK A01 T02560206  RH  074%=      5-min Rain = 0
KCH1 141044Z 05005KT 26/21 A3002 RMK A01 T02560206  RH  074%=      5-min Rain = 0
KCH1 141045Z 04005KT 26/21 A3002 RMK A01 T02560208  RH  075%=      5-min Rain = 0
KCH1 141046Z 04004KT 26/21 A3002 RMK A01 T02560208  RH  075%=      5-min Rain = 0
KCH1 141047Z 04005KT 26/21 A3002 RMK A01 T02560208  RH  075%=      5-min Rain = 0
KCH1 141048Z 04005KT 26/21 A3002 RMK A01 T02560209  RH  075%=      5-min Rain = 0
KCH1 141049Z 05004KT 26/21 A3002 RMK A01 T02560210  RH  076%=      5-min Rain = 0
KCH1 141050Z 05004KT 26/21 A3002 RMK A01 T02560210  RH  076%=      5-min Rain = 0
KCH1 141051Z 05004KT 26/21 A3002 RMK A01 T02550211  RH  077%=      5-min Rain = 0
KCH1 141052Z 04004KT 26/21 A3002 RMK A01 T02550212  RH  077%=      5-min Rain = 0
KCH1 141053Z 05003KT 26/21 A3002 RMK A01 T02550212  RH  077%=      5-min Rain = 0
KCH1 141054Z 06003KT 26/21 A3001 RMK A01 T02550212  RH  077%=      5-min Rain = 0
KCH1 141055Z 07004KT 26/21 A3001 RMK A01 T02550212  RH  077%=      5-min Rain = 0
KCH1 141056Z 08003KT 25/21 A3001 RMK A01 T02540212  RH  077%=      5-min Rain = 0
KCH1 141057Z 09004KT 25/21 A3002 RMK A01 T02540211  RH  077%=      5-min Rain = 0
KCH1 141058Z 09003KT 25/21 A3001 RMK A01 T02530211  RH  077%=      5-min Rain = 0
KCH1 141059Z 09003KT 25/21 A3002 RMK A01 T02540211  RH  077%=      5-min Rain = 0
KCH1 141100Z 09004KT 25/21 A3002 RMK A01 T02530210  RH  077%=      5-min Rain = 0
KCH1 141101Z 08004KT 25/21 A3002 RMK A01 T02530210  RH  077%=      5-min Rain = 0
KCH1 141102Z 07004KT 25/21 A3002 RMK A01 T02540210  RH  077%=      5-min Rain = 0
KCH1 141103Z 07005KT 25/21 A3002 RMK A01 T02530209  RH  076%=      5-min Rain = 0
KCH1 141104Z 07005KT 25/21 A3002 RMK A01 T02530209  RH  076%=      5-min Rain = 0
KCH1 141105Z 06005KT 25/21 A3002 RMK A01 T02540209  RH  076%=      5-min Rain = 0
KCH1 141106Z 07006KT 25/21 A3002 RMK A01 T02530208  RH  076%=      5-min Rain = 0
KCH1 141107Z 08006KT 25/21 A3002 RMK A01 T02540208  RH  076%=      5-min Rain = 0
KCH1 141108Z 08006KT 25/21 A3002 RMK A01 T02540208  RH  076%=      5-min Rain = 0
KCH1 141109Z 07005KT 26/21 A3002 RMK A01 T02550208  RH  075%=      5-min Rain = 0
KCH1 141110Z 08006KT 26/21 A3002 RMK A01 T02550209  RH  075%=      5-min Rain = 0
KCH1 141111Z 08006KT 26/21 A3002 RMK A01 T02550209  RH  076%=      5-min Rain = 0
KCH1 141112Z 08006KT 26/21 A3002 RMK A01 T02550209  RH  076%=      5-min Rain = 0
KCH1 141113Z 07005KT 26/21 A3002 RMK A01 T02550209  RH  076%=      5-min Rain = 0
KCH1 141114Z 07006KT 26/21 A3002 RMK A01 T02550210  RH  076%=      5-min Rain = 0
KCH1 141115Z 06006KT 25/21 A3002 RMK A01 T02540210  RH  076%=      5-min Rain = 0
KCH1 141116Z 06006KT 25/21 A3002 RMK A01 T02540210  RH  077%=      5-min Rain = 0
KCH1 141117Z 06007KT 25/21 A3002 RMK A01 T02530211  RH  077%=      5-min Rain = 0
KCH1 141118Z 05006KT 25/21 A3002 RMK A01 T02530211  RH  077%=      5-min Rain = 0
KCH1 141119Z 05006KT 25/21 A3002 RMK A01 T02530211  RH  078%=      5-min Rain = 0
KCH1 141120Z 05006KT 25/21 A3002 RMK A01 T02520211  RH  078%=      5-min Rain = 0
KCH1 141121Z 05006KT 25/21 A3002 RMK A01 T02520212  RH  078%=      5-min Rain = 0
KCH1 141122Z 05006KT 25/21 A3002 RMK A01 T02520212  RH  078%=      5-min Rain = 0
KCH1 141123Z 05007KT 25/21 A3002 RMK A01 T02520212  RH  079%=      5-min Rain = 0
KCH1 141124Z 05006KT 25/21 A3002 RMK A01 T02520212  RH  079%=      5-min Rain = 0
KCH1 141125Z 04006KT 25/21 A3002 RMK A01 T02520213  RH  079%=      5-min Rain = 0
KCH1 141126Z 04007KT 25/21 A3003 RMK A01 T02520213  RH  079%=      5-min Rain = 0
KCH1 141127Z 05006KT 25/21 A3003 RMK A01 T02510212  RH  079%=      5-min Rain = 0
KCH1 141128Z 05008KT 25/21 A3003 RMK A01 T02510212  RH  079%=      5-min Rain = 0
KCH1 141129Z 05007KT 25/21 A3003 RMK A01 T02510213  RH  079%=      5-min Rain = 0
KCH1 141130Z 05006KT 25/21 A3003 RMK A01 T02510213  RH  079%=      5-min Rain = 0
KCH1 141131Z 05007KT 25/21 A3003 RMK A01 T02510213  RH  080%=      5-min Rain = 0
KCH1 141132Z 05007KT 25/21 A3003 RMK A01 T02500213  RH  080%=      5-min Rain = 0
KCH1 141133Z 05008KT 25/21 A3003 RMK A01 T02500213  RH  080%=      5-min Rain = 0
KCH1 141134Z 05006KT 25/21 A3003 RMK A01 T02500213  RH  080%=      5-min Rain = 0
KCH1 141135Z 04007KT 25/21 A3003 RMK A01 T02500213  RH  080%=      5-min Rain = 0
KCH1 141136Z 04007KT 25/21 A3003 RMK A01 T02500213  RH  080%=      5-min Rain = 0
KCH1 141137Z 03006KT 25/21 A3004 RMK A01 T02500213  RH  080%=      5-min Rain = 0
KCH1 141138Z 03009KT 25/21 A3004 RMK A01 T02500213  RH  080%=      5-min Rain = 0
KCH1 141139Z 04009G14KT 25/21 A3004 RMK A01 T02500214  RH  080%=      5-min Rain = 0
KCH1 141140Z 03009KT 25/21 A3004 RMK A01 T02500214  RH  080%=      5-min Rain = 0
KCH1 141141Z 04007KT 25/21 A3004 RMK A01 T02510214  RH  080%=      5-min Rain = 0
KCH1 141142Z 04008KT 25/22 A3004 RMK A01 T02500215  RH  081%=      5-min Rain = 0
KCH1 141143Z 03008KT 25/22 A3004 RMK A01 T02500215  RH  081%=      5-min Rain = 0
KCH1 141144Z 03007KT 25/22 A3004 RMK A01 T02500215  RH  081%=      5-min Rain = 0
KCH1 141145Z 04007KT 25/22 A3004 RMK A01 T02500216  RH  081%=      5-min Rain = 0
KCH1 141146Z 04006KT 25/22 A3004 RMK A01 T02500216  RH  081%=      5-min Rain = 0
KCH1 141147Z 04006KT 25/22 A3004 RMK A01 T02500216  RH  082%=      5-min Rain = 0
KCH1 141148Z 04008KT 25/22 A3004 RMK A01 T02490217  RH  082%=      5-min Rain = 0
KCH1 141149Z 05008KT 25/22 A3004 RMK A01 T02490217  RH  083%=      5-min Rain = 0
KCH1 141150Z 04009KT 25/22 A3004 RMK A01 T02480217  RH  083%=      5-min Rain = 0
KCH1 141151Z 05010KT 25/22 A3004 RMK A01 T02480218  RH  083%=      5-min Rain = 0
KCH1 141152Z 05009KT 25/22 A3004 RMK A01 T02480218  RH  083%=      5-min Rain = 0
KCH1 141153Z 05008KT 25/22 A3004 RMK A01 T02480218  RH  083%=      5-min Rain = 0
KCH1 141154Z 05008KT 25/22 A3004 RMK A01 T02480218  RH  084%=      5-min Rain = 0
KCH1 141155Z 05007KT 25/22 A3004 RMK A01 T02470218  RH  084%=      5-min Rain = 0
KCH1 141156Z 05007KT 25/22 A3004 RMK A01 T02470218  RH  084%=      5-min Rain = 0
KCH1 141157Z 05008KT 25/22 A3004 RMK A01 T02470218  RH  084%=      5-min Rain = 0
KCH1 141158Z 05007KT 25/22 A3004 RMK A01 T02470218  RH  084%=      5-min Rain = 0
KCH1 141159Z 05006KT 25/22 A3004 RMK A01 T02470218  RH  084%=      5-min Rain = 0
KCH1 141200Z 05006KT 25/22 A3004 RMK A01 T02460217  RH  084%=      5-min Rain = 0
KCH1 141201Z 04007KT 25/22 A3004 RMK A01 T02460218  RH  084%=      5-min Rain = 0
KCH1 141202Z 05007KT 25/22 A3004 RMK A01 T02460218  RH  084%=      5-min Rain = 0
KCH1 141203Z 05006KT 25/22 A3004 RMK A01 T02460218  RH  085%=      5-min Rain = 0
KCH1 141204Z 05008KT 25/22 A3004 RMK A01 T02450218  RH  085%=      5-min Rain = 0
KCH1 141205Z 05009KT 25/22 A3004 RMK A01 T02450218  RH  085%=      5-min Rain = 0
KCH1 141206Z 06007KT 25/22 A3004 RMK A01 T02450219  RH  085%=      5-min Rain = 0
KCH1 141207Z 05007KT 25/22 A3004 RMK A01 T02450219  RH  085%=      5-min Rain = 0
KCH1 141208Z 05006KT 25/22 A3004 RMK A01 T02450219  RH  086%=      5-min Rain = 0
KCH1 141209Z 05006KT 24/22 A3004 RMK A01 T02440219  RH  086%=      5-min Rain = 0
KCH1 141210Z 05006KT 24/22 A3004 RMK A01 T02440219  RH  086%=      5-min Rain = 0
KCH1 141211Z 06008KT 24/22 A3004 RMK A01 T02440219  RH  086%=      5-min Rain = 0
KCH1 141212Z 06007KT 24/22 A3004 RMK A01 T02440219  RH  086%=      5-min Rain = 0
KCH1 141213Z 06007KT 24/22 A3004 RMK A01 T02440219  RH  086%=      5-min Rain = 0
KCH1 141214Z 06006KT 24/22 A3004 RMK A01 T02440219  RH  086%=      5-min Rain = 0
KCH1 141215Z 05008KT 24/22 A3004 RMK A01 T02440219  RH  086%=      5-min Rain = 0
KCH1 141216Z 05008KT 24/22 A3004 RMK A01 T02430219  RH  086%=      5-min Rain = 0
KCH1 141217Z 05007KT 24/22 A3004 RMK A01 T02430219  RH  086%=      5-min Rain = 0
KCH1 141218Z 04008KT 24/22 A3004 RMK A01 T02430219  RH  086%=      5-min Rain = 0
KCH1 141219Z 04006KT 24/22 A3004 RMK A01 T02430219  RH  086%=      5-min Rain = 0
KCH1 141220Z 05007KT 24/22 A3004 RMK A01 T02440219  RH  086%=      5-min Rain = 0
KCH1 141221Z 05006KT 24/22 A3004 RMK A01 T02440219  RH  086%=      5-min Rain = 0
KCH1 141222Z 05007KT 24/22 A3004 RMK A01 T02430219  RH  086%=      5-min Rain = 0
KCH1 141223Z 05008KT 24/22 A3004 RMK A01 T02430219  RH  086%=      5-min Rain = 0
KCH1 141224Z 05007KT 24/22 A3004 RMK A01 T02430219  RH  086%=      5-min Rain = 0
KCH1 141225Z 05007KT 24/22 A3004 RMK A01 T02430219  RH  086%=      5-min Rain = 0
KCH1 141226Z 05008KT 24/22 A3004 RMK A01 T02440219  RH  086%=      5-min Rain = 0
KCH1 141227Z 04007KT 24/22 A3004 RMK A01 T02440219  RH  086%=      5-min Rain = 0
KCH1 141228Z 04006KT 24/22 A3004 RMK A01 T02440219  RH  086%=      5-min Rain = 0
KCH1 141229Z 05007KT 24/22 A3004 RMK A01 T02440219  RH  086%=      5-min Rain = 0
KCH1 141230Z 03006KT 24/22 A3004 RMK A01 T02440219  RH  086%=      5-min Rain = 0
KCH1 141231Z 04007KT 24/22 A3004 RMK A01 T02440219  RH  086%=      5-min Rain = 0
KCH1 141232Z 05007KT 25/22 A3004 RMK A01 T02450219  RH  086%=      5-min Rain = 0
KCH1 141233Z 05007KT 25/22 A3004 RMK A01 T02450219  RH  085%=      5-min Rain = 0
KCH1 141234Z 05007KT 25/22 A3004 RMK A01 T02450219  RH  085%=      5-min Rain = 0
KCH1 141235Z 04008KT 25/22 A3004 RMK A01 T02450219  RH  085%=      5-min Rain = 0
KCH1 141236Z 05008KT 25/22 A3004 RMK A01 T02450219  RH  085%=      5-min Rain = 0
KCH1 141237Z 03006KT 25/22 A3004 RMK A01 T02450219  RH  085%=      5-min Rain = 0
KCH1 141238Z 03005KT 25/22 A3005 RMK A01 T02450219  RH  085%=      5-min Rain = 0
KCH1 141239Z 03008KT 25/22 A3005 RMK A01 T02450219  RH  085%=      5-min Rain = 0
KCH1 141240Z 04007KT 25/22 A3005 RMK A01 T02450219  RH  085%=      5-min Rain = 0
KCH1 141241Z 04006KT 25/22 A3005 RMK A01 T02450219  RH  085%=      5-min Rain = 0
KCH1 141242Z 02004KT 25/22 A3005 RMK A01 T02450219  RH  085%=      5-min Rain = 0
KCH1 141243Z 04005KT 25/22 A3005 RMK A01 T02450219  RH  085%=      5-min Rain = 0
KCH1 141244Z 04008KT 25/22 A3005 RMK A01 T02450219  RH  085%=      5-min Rain = 0
KCH1 141245Z 04007KT 25/22 A3005 RMK A01 T02450218  RH  085%=      5-min Rain = 0
KCH1 141246Z 04007KT 25/22 A3005 RMK A01 T02450218  RH  085%=      5-min Rain = 0
KCH1 141247Z 04007KT 25/22 A3005 RMK A01 T02460218  RH  085%=      5-min Rain = 0
KCH1 141248Z 03007KT 25/22 A3005 RMK A01 T02470219  RH  085%=      5-min Rain = 0
KCH1 141249Z 05008KT 25/22 A3005 RMK A01 T02470218  RH  084%=      5-min Rain = 0
KCH1 141250Z 03007KT 25/22 A3006 RMK A01 T02470218  RH  084%=      5-min Rain = 0
KCH1 141251Z 03008KT 25/22 A3006 RMK A01 T02470218  RH  084%=      5-min Rain = 0
KCH1 141252Z 03005KT 25/22 A3006 RMK A01 T02480218  RH  083%=      5-min Rain = 0
KCH1 141253Z 04007KT 25/22 A3006 RMK A01 T02480218  RH  083%=      5-min Rain = 0
KCH1 141254Z 04006KT 25/22 A3006 RMK A01 T02480218  RH  083%=      5-min Rain = 0
KCH1 141255Z 03005KT 25/22 A3005 RMK A01 T02490218  RH  083%=      5-min Rain = 0
KCH1 141256Z 05005KT 25/22 A3005 RMK A01 T02490218  RH  083%=      5-min Rain = 0
KCH1 141257Z 05006KT 25/22 A3005 RMK A01 T02490218  RH  083%=      5-min Rain = 0
KCH1 141258Z 04008KT 25/22 A3005 RMK A01 T02500218  RH  082%=      5-min Rain = 0
KCH1 141259Z 04008KT 25/22 A3006 RMK A01 T02500217  RH  082%=      5-min Rain = 0
KCH1 141300Z 04008KT 25/22 A3006 RMK A01 T02500217  RH  082%=      5-min Rain = 0
KCH1 141301Z 03007KT 25/22 A3006 RMK A01 T02490217  RH  083%=      5-min Rain = 0
KCH1 141302Z 03008KT 25/22 A3006 RMK A01 T02490217  RH  083%=      5-min Rain = 0
KCH1 141303Z 03008KT 25/22 A3006 RMK A01 T02480217  RH  083%=      5-min Rain = 0
KCH1 141304Z 04011KT 25/22 A3006 RMK A01 T02480217  RH  083%=      5-min Rain = 0
KCH1 141305Z 04009KT 25/22 A3006 RMK A01 T02480217  RH  083%=      5-min Rain = 0
KCH1 141306Z 05009KT 25/22 A3006 RMK A01 T02480216  RH  083%=      5-min Rain = 0
KCH1 141307Z 04007KT 25/22 A3006 RMK A01 T02490217  RH  082%=      5-min Rain = 0
KCH1 141308Z 04006KT 25/22 A3006 RMK A01 T02500217  RH  082%=      5-min Rain = 0
KCH1 141309Z 04009KT 25/22 A3006 RMK A01 T02500217  RH  082%=      5-min Rain = 0
KCH1 141310Z 04009KT 25/22 A3006 RMK A01 T02500216  RH  081%=      5-min Rain = 0
KCH1 141311Z 03006KT 25/22 A3006 RMK A01 T02500216  RH  081%=      5-min Rain = 0
KCH1 141312Z 03007KT 25/22 A3006 RMK A01 T02510217  RH  082%=      5-min Rain = 0
KCH1 141313Z 03006G11KT 25/22 A3006 RMK A01 T02520217  RH  081%=      5-min Rain = 0
KCH1 141314Z 04006KT 25/22 A3006 RMK A01 T02530217  RH  080%=      5-min Rain = 0
KCH1 141315Z 03006KT 25/22 A3006 RMK A01 T02530217  RH  080%=      5-min Rain = 0
KCH1 141316Z 03007KT 25/22 A3006 RMK A01 T02530217  RH  080%=      5-min Rain = 0
KCH1 141317Z 04009KT 25/22 A3006 RMK A01 T02540217  RH  080%=      5-min Rain = 0
KCH1 141318Z 04012KT 25/22 A3006 RMK A01 T02540216  RH  079%=      5-min Rain = 0
KCH1 141319Z 04009KT 25/22 A3006 RMK A01 T02540216  RH  079%=      5-min Rain = 0
KCH1 141320Z 04007KT 25/22 A3006 RMK A01 T02540216  RH  080%=      5-min Rain = 0
KCH1 141321Z 04008KT 26/22 A3006 RMK A01 T02550216  RH  079%=      5-min Rain = 0
KCH1 141322Z 04009KT 26/22 A3006 RMK A01 T02560217  RH  079%=      5-min Rain = 0
KCH1 141323Z 04008KT 26/22 A3006 RMK A01 T02560216  RH  079%=      5-min Rain = 0
KCH1 141324Z 04007KT 26/22 A3006 RMK A01 T02560216  RH  079%=      5-min Rain = 0
KCH1 141325Z 05009KT 26/22 A3006 RMK A01 T02560216  RH  078%=      5-min Rain = 0
KCH1 141326Z 05008KT 26/22 A3006 RMK A01 T02570215  RH  078%=      5-min Rain = 0
KCH1 141327Z 06010KT 26/22 A3006 RMK A01 T02560215  RH  078%=      5-min Rain = 0
KCH1 141328Z 03010KT 26/22 A3006 RMK A01 T02560216  RH  078%=      5-min Rain = 0
KCH1 141329Z 05009KT 26/22 A3007 RMK A01 T02570215  RH  078%=      5-min Rain = 0
KCH1 141330Z 04009KT 26/22 A3007 RMK A01 T02570215  RH  078%=      5-min Rain = 0
KCH1 141331Z 05009G14KT 26/22 A3007 RMK A01 T02580216  RH  077%=      5-min Rain = 0
KCH1 141332Z 04009G15KT 26/22 A3007 RMK A01 T02590215  RH  077%=      5-min Rain = 0
KCH1 141333Z 05011KT 26/22 A3007 RMK A01 T02580215  RH  077%=      5-min Rain = 0
KCH1 141334Z 03009KT 26/22 A3007 RMK A01 T02570215  RH  077%=      5-min Rain = 0
KCH1 141335Z 04008G13KT 26/22 A3007 RMK A01 T02580215  RH  077%=      5-min Rain = 0
KCH1 141336Z 03009KT 26/21 A3007 RMK A01 T02580214  RH  077%=      5-min Rain = 0
KCH1 141337Z 04008KT 26/22 A3007 RMK A01 T02580215  RH  077%=      5-min Rain = 0
KCH1 141338Z 03010KT 26/22 A3007 RMK A01 T02590215  RH  077%=      5-min Rain = 0
KCH1 141339Z 03010KT 26/21 A3007 RMK A01 T02590214  RH  076%=      5-min Rain = 0
KCH1 141340Z 04010KT 26/21 A3007 RMK A01 T02590214  RH  076%=      5-min Rain = 0
KCH1 141341Z 04011KT 26/22 A3007 RMK A01 T02590215  RH  077%=      5-min Rain = 0
KCH1 141342Z 04010KT 26/21 A3007 RMK A01 T02590214  RH  076%=      5-min Rain = 0
KCH1 141343Z 04011KT 26/22 A3007 RMK A01 T02590215  RH  077%=      5-min Rain = 0
KCH1 141344Z 04010KT 26/22 A3007 RMK A01 T02590215  RH  077%=      5-min Rain = 0
KCH1 141345Z 06009KT 26/22 A3007 RMK A01 T02600215  RH  076%=      5-min Rain = 0
KCH1 141346Z 06011KT 26/21 A3007 RMK A01 T02610214  RH  075%=      5-min Rain = 0
KCH1 141347Z 05012KT 26/22 A3007 RMK A01 T02610215  RH  076%=      5-min Rain = 0
KCH1 141348Z 05011KT 26/21 A3007 RMK A01 T02600214  RH  076%=      5-min Rain = 0
KCH1 141349Z 06013KT 26/22 A3007 RMK A01 T02600215  RH  076%=      5-min Rain = 0
KCH1 141350Z 05011KT 26/21 A3007 RMK A01 T02600214  RH  076%=      5-min Rain = 0
KCH1 141351Z 05013KT 26/22 A3007 RMK A01 T02600215  RH  076%=      5-min Rain = 0
KCH1 141352Z 06013KT 26/21 A3007 RMK A01 T02600214  RH  075%=      5-min Rain = 0
KCH1 141353Z 05011KT 26/21 A3008 RMK A01 T02600214  RH  076%=      5-min Rain = 0
KCH1 141354Z 06012KT 26/21 A3008 RMK A01 T02600214  RH  076%=      5-min Rain = 0
KCH1 141355Z 04009KT 26/22 A3008 RMK A01 T02600215  RH  076%=      5-min Rain = 0
KCH1 141356Z 05005KT 26/22 A3008 RMK A01 T02620215  RH  076%=      5-min Rain = 0
KCH1 141357Z 05009KT 26/22 A3008 RMK A01 T02630216  RH  075%=      5-min Rain = 0
KCH1 141358Z 06009KT 26/22 A3008 RMK A01 T02640215  RH  075%=      5-min Rain = 0
KCH1 141359Z 06010KT 26/22 A3008 RMK A01 T02640216  RH  075%=      5-min Rain = 0
KCH1 141400Z 05011KT 26/22 A3008 RMK A01 T02640215  RH  074%=      5-min Rain = 0
KCH1 141401Z 05010KT 26/22 A3008 RMK A01 T02640215  RH  074%=      5-min Rain = 0
KCH1 141402Z 06012KT 27/22 A3008 RMK A01 T02650215  RH  074%=      5-min Rain = 0
KCH1 141403Z 05011KT 27/22 A3008 RMK A01 T02650215  RH  074%=      5-min Rain = 0
KCH1 141404Z 05011KT 26/22 A3008 RMK A01 T02640215  RH  074%=      5-min Rain = 0
KCH1 141405Z 06010KT 26/22 A3008 RMK A01 T02640215  RH  074%=      5-min Rain = 0
KCH1 141406Z 06012KT 27/22 A3008 RMK A01 T02660215  RH  074%=      5-min Rain = 0
KCH1 141407Z 05010KT 27/22 A3008 RMK A01 T02660215  RH  074%=      5-min Rain = 0
KCH1 141408Z 06011KT 27/22 A3008 RMK A01 T02660215  RH  074%=      5-min Rain = 0
KCH1 141409Z 06011KT 27/22 A3008 RMK A01 T02670215  RH  073%=      5-min Rain = 0
KCH1 141410Z 06011KT 27/22 A3008 RMK A01 T02680215  RH  073%=      5-min Rain = 0
KCH1 141411Z 05006KT 27/22 A3008 RMK A01 T02680216  RH  074%=      5-min Rain = 0
KCH1 141412Z 04009KT 27/22 A3008 RMK A01 T02690217  RH  073%=      5-min Rain = 0
KCH1 141413Z 06007KT 27/22 A3008 RMK A01 T02700217  RH  073%=      5-min Rain = 0
KCH1 141414Z 04008KT 27/22 A3008 RMK A01 T02730218  RH  072%=      5-min Rain = 0
KCH1 141415Z 06009KT 27/22 A3009 RMK A01 T02730218  RH  072%=      5-min Rain = 0
KCH1 141416Z 06009KT 28/22 A3009 RMK A01 T02750219  RH  072%=      5-min Rain = 0
KCH1 141417Z 06011KT 28/22 A3009 RMK A01 T02760218  RH  070%=      5-min Rain = 0
KCH1 141418Z 04009KT 28/22 A3009 RMK A01 T02750218  RH  071%=      5-min Rain = 0
KCH1 141419Z 04009G14KT 28/22 A3009 RMK A01 T02750218  RH  071%=      5-min Rain = 0
KCH1 141420Z 05012KT 28/22 A3009 RMK A01 T02750217  RH  070%=      5-min Rain = 0
KCH1 141421Z 05014KT 27/22 A3009 RMK A01 T02730215  RH  071%=      5-min Rain = 0
KCH1 141422Z 05013KT 27/22 A3009 RMK A01 T02700215  RH  072%=      5-min Rain = 0
KCH1 141423Z 05012KT 27/21 A3009 RMK A01 T02700214  RH  072%=      5-min Rain = 0
KCH1 141424Z 05010KT 27/22 A3009 RMK A01 T02690215  RH  072%=      5-min Rain = 0
KCH1 141425Z 04011KT 27/22 A3009 RMK A01 T02700217  RH  073%=      5-min Rain = 0
KCH1 141426Z 03012KT 27/22 A3009 RMK A01 T02730217  RH  071%=      5-min Rain = 0
KCH1 141427Z 03009KT 27/22 A301 RMK A01 T02740216  RH  071%=      5-min Rain = 0
KCH1 141428Z 04009G15KT 27/22 A301 RMK A01 T02740216  RH  071%=      5-min Rain = 0
KCH1 141429Z 06011KT 28/22 A301 RMK A01 T02750216  RH  070%=      5-min Rain = 0
KCH1 141430Z 05009KT 27/22 A301 RMK A01 T02740216  RH  071%=      5-min Rain = 0
KCH1 141431Z 04007KT 28/22 A301 RMK A01 T02750218  RH  071%=      5-min Rain = 0
KCH1 141432Z 04006KT 28/22 A301 RMK A01 T02770219  RH  071%=      5-min Rain = 0
KCH1 141433Z 02007KT 28/22 A301 RMK A01 T02800220  RH  070%=      5-min Rain = 0
KCH1 141434Z 04007KT 28/22 A301 RMK A01 T02800219  RH  069%=      5-min Rain = 0
KCH1 141435Z 04011KT 28/22 A301 RMK A01 T02800218  RH  069%=      5-min Rain = 0
KCH1 141436Z 04011KT 28/22 A301 RMK A01 T02790218  RH  069%=      5-min Rain = 0
KCH1 141437Z 05010KT 28/22 A301 RMK A01 T02770217  RH  070%=      5-min Rain = 0
KCH1 141438Z 05012KT 28/22 A301 RMK A01 T02760217  RH  070%=      5-min Rain = 0
KCH1 141439Z 05010KT 28/22 A301 RMK A01 T02750216  RH  070%=      5-min Rain = 0
KCH1 141440Z 05013KT 28/22 A301 RMK A01 T02750216  RH  070%=      5-min Rain = 0
KCH1 141441Z 06014KT 27/22 A301 RMK A01 T02730216  RH  071%=      5-min Rain = 0
KCH1 141442Z 04011KT 27/22 A301 RMK A01 T02720217  RH  072%=      5-min Rain = 0
KCH1 141443Z 04007KT 27/22 A301 RMK A01 T02720218  RH  072%=      5-min Rain = 0
KCH1 141444Z 04009G14KT 28/22 A301 RMK A01 T02750219  RH  071%=      5-min Rain = 0
KCH1 141445Z 04012KT 28/22 A301 RMK A01 T02770218  RH  070%=      5-min Rain = 0
KCH1 141446Z 05013KT 28/22 A3011 RMK A01 T02780217  RH  070%=      5-min Rain = 0
KCH1 141447Z 05012KT 28/22 A3011 RMK A01 T02760216  RH  070%=      5-min Rain = 0
KCH1 141448Z 04009KT 28/22 A3011 RMK A01 T02750217  RH  071%=      5-min Rain = 0
KCH1 141449Z 04008KT 28/22 A301 RMK A01 T02750217  RH  071%=      5-min Rain = 0
KCH1 141450Z 04008KT 28/22 A301 RMK A01 T02770217  RH  070%=      5-min Rain = 0
KCH1 141451Z 04011KT 28/22 A301 RMK A01 T02790218  RH  070%=      5-min Rain = 0
KCH1 141452Z 06012KT 28/22 A301 RMK A01 T02800217  RH  069%=      5-min Rain = 0
KCH1 141453Z 05014KT 28/22 A301 RMK A01 T02790216  RH  069%=      5-min Rain = 0
KCH1 141454Z 05010KT 28/22 A3011 RMK A01 T02770217  RH  070%=      5-min Rain = 0
KCH1 141455Z 05009KT 28/22 A3011 RMK A01 T02770217  RH  070%=      5-min Rain = 0
KCH1 141456Z 05012KT 28/22 A3011 RMK A01 T02780218  RH  070%=      5-min Rain = 0
KCH1 141457Z 06013KT 28/22 A3011 RMK A01 T02790217  RH  069%=      5-min Rain = 0
KCH1 141458Z 05011KT 28/22 A3011 RMK A01 T02780216  RH  069%=      5-min Rain = 0
KCH1 141459Z 05011KT 28/22 A3011 RMK A01 T02770216  RH  070%=      5-min Rain = 0
KCH1 141500Z 05010KT 28/22 A3011 RMK A01 T02770217  RH  070%=      5-min Rain = 0
KCH1 141501Z 04011KT 28/22 A3011 RMK A01 T02760216  RH  070%=      5-min Rain = 0
KCH1 141502Z 03009KT 28/22 A301 RMK A01 T02760216  RH  070%=      5-min Rain = 0
KCH1 141503Z 03008G13KT 28/22 A301 RMK A01 T02770217  RH  070%=      5-min Rain = 0
KCH1 141504Z 03011KT 28/22 A3011 RMK A01 T02790216  RH  069%=      5-min Rain = 0
KCH1 141505Z 03013KT 28/22 A3011 RMK A01 T02780217  RH  069%=      5-min Rain = 0
KCH1 141506Z 03011KT 28/22 A3011 RMK A01 T02770216  RH  069%=      5-min Rain = 0
KCH1 141507Z 03011KT 28/22 A3011 RMK A01 T02770216  RH  069%=      5-min Rain = 0
KCH1 141508Z 04008G13KT 28/22 A3011 RMK A01 T02770216  RH  069%=      5-min Rain = 0
KCH1 141509Z 05004G9KT 28/22 A3011 RMK A01 T02780217  RH  069%=      5-min Rain = 0
KCH1 141510Z 03010KT 28/22 A3011 RMK A01 T02830219  RH  068%=      5-min Rain = 0
KCH1 141511Z 03008KT 29/22 A3011 RMK A01 T02850219  RH  067%=      5-min Rain = 0
KCH1 141512Z 04009KT 29/22 A3011 RMK A01 T02850219  RH  068%=      5-min Rain = 0
KCH1 141513Z 02009KT 29/22 A3011 RMK A01 T02870219  RH  067%=      5-min Rain = 0
KCH1 141514Z 02009KT 29/22 A3011 RMK A01 T02870219  RH  066%=      5-min Rain = 0
KCH1 141515Z 02008KT 29/22 A3011 RMK A01 T02870218  RH  066%=      5-min Rain = 0
KCH1 141516Z 04010KT 29/22 A3011 RMK A01 T02870219  RH  066%=      5-min Rain = 0
KCH1 141517Z 04010KT 29/22 A3011 RMK A01 T02890218  RH  066%=      5-min Rain = 0
KCH1 141518Z 04013KT 29/22 A3011 RMK A01 T02880218  RH  066%=      5-min Rain = 0
KCH1 141519Z 04010G15KT 29/22 A3011 RMK A01 T02870216  RH  065%=      5-min Rain = 0
KCH1 141520Z 03011KT 29/22 A3011 RMK A01 T02860217  RH  066%=      5-min Rain = 0
KCH1 141521Z 05012KT 29/22 A3011 RMK A01 T02850216  RH  066%=      5-min Rain = 0
KCH1 141522Z 04013KT 29/21 A3011 RMK A01 T02850214  RH  065%=      5-min Rain = 0
KCH1 141523Z 04011KT 29/21 A3011 RMK A01 T02860213  RH  065%=      5-min Rain = 0
KCH1 141524Z 04010KT 29/21 A3011 RMK A01 T02860211  RH  064%=      5-min Rain = 0
KCH1 141525Z 04011KT 29/21 A3011 RMK A01 T02880214  RH  064%=      5-min Rain = 0
KCH1 141526Z 04011KT 29/21 A3011 RMK A01 T02900213  RH  063%=      5-min Rain = 0
KCH1 141527Z 05008KT 29/22 A3011 RMK A01 T02900215  RH  064%=      5-min Rain = 0
KCH1 141528Z 05011KT 29/21 A3011 RMK A01 T02920213  RH  063%=      5-min Rain = 0
KCH1 141529Z 05012KT 29/21 A3011 RMK A01 T02930213  RH  062%=      5-min Rain = 0
KCH1 141530Z 04010KT 29/21 A3011 RMK A01 T02920214  RH  063%=      5-min Rain = 0
KCH1 141531Z 04010KT 29/21 A3011 RMK A01 T02920214  RH  063%=      5-min Rain = 0
KCH1 141532Z 04012KT 29/21 A3011 RMK A01 T02930212  RH  062%=      5-min Rain = 0
KCH1 141533Z 05012KT 29/21 A3011 RMK A01 T02940212  RH  061%=      5-min Rain = 0
KCH1 141534Z 06013KT 30/21 A3012 RMK A01 T02950213  RH  061%=      5-min Rain = 0
KCH1 141535Z 04012KT 30/21 A3012 RMK A01 T02950213  RH  061%=      5-min Rain = 0
KCH1 141536Z 04011KT 29/21 A3012 RMK A01 T02940213  RH  062%=      5-min Rain = 0
KCH1 141537Z 04011KT 29/22 A3012 RMK A01 T02940215  RH  062%=      5-min Rain = 0
KCH1 141538Z 04012KT 30/22 A3012 RMK A01 T02950215  RH  062%=      5-min Rain = 0
KCH1 141539Z 04011KT 30/22 A3012 RMK A01 T02950215  RH  062%=      5-min Rain = 0
KCH1 141540Z 05011KT 29/22 A3012 RMK A01 T02940215  RH  062%=      5-min Rain = 0
KCH1 141541Z 05012KT 29/21 A3012 RMK A01 T02940214  RH  062%=      5-min Rain = 0
KCH1 141542Z 05011KT 29/22 A3012 RMK A01 T02940215  RH  062%=      5-min Rain = 0
KCH1 141543Z 06012KT 29/21 A3012 RMK A01 T02940214  RH  062%=      5-min Rain = 0
KCH1 141544Z 04012KT 30/22 A3012 RMK A01 T02970217  RH  062%=      5-min Rain = 0
KCH1 141545Z 04010KT 30/22 A3012 RMK A01 T03000217  RH  061%=      5-min Rain = 0
KCH1 141546Z 04010KT 30/22 A3012 RMK A01 T03000217  RH  061%=      5-min Rain = 0
KCH1 141547Z 04008G13KT 30/22 A3012 RMK A01 T03000218  RH  061%=      5-min Rain = 0
KCH1 141548Z 03011KT 30/22 A3012 RMK A01 T03020217  RH  060%=      5-min Rain = 0
KCH1 141549Z 04011KT 30/22 A3012 RMK A01 T03000216  RH  061%=      5-min Rain = 0
KCH1 141550Z 04009KT 30/22 A3012 RMK A01 T02990216  RH  061%=      5-min Rain = 0
KCH1 141551Z 04011KT 30/22 A3012 RMK A01 T02980215  RH  061%=      5-min Rain = 0
KCH1 141552Z 02011KT 30/22 A3012 RMK A01 T03000217  RH  061%=      5-min Rain = 0
KCH1 141553Z 01010KT 30/22 A3012 RMK A01 T03010216  RH  060%=      5-min Rain = 0
KCH1 141554Z 03008KT 30/22 A3012 RMK A01 T03010217  RH  061%=      5-min Rain = 0
KCH1 141555Z 03009G15KT 30/22 A3012 RMK A01 T03030218  RH  060%=      5-min Rain = 0
KCH1 141556Z 04012KT 31/21 A3012 RMK A01 T03060213  RH  058%=      5-min Rain = 0
KCH1 141557Z 04010KT 31/21 A3012 RMK A01 T03070214  RH  058%=      5-min Rain = 0
KCH1 141558Z 04009KT 31/22 A3012 RMK A01 T03060215  RH  058%=      5-min Rain = 0
KCH1 141559Z 04010KT 31/21 A3012 RMK A01 T03050214  RH  058%=      5-min Rain = 0
KCH1 141600Z 05012KT 31/21 A3012 RMK A01 T03050212  RH  058%=      5-min Rain = 0
KCH1 141601Z 05011KT 30/21 A3012 RMK A01 T03040212  RH  058%=      5-min Rain = 0
KCH1 141602Z 04010KT 30/21 A3012 RMK A01 T03040214  RH  059%=      5-min Rain = 0
KCH1 141603Z 05007KT 31/22 A3012 RMK A01 T03050215  RH  059%=      5-min Rain = 0
KCH1 141604Z 06007KT 31/22 A3012 RMK A01 T03080216  RH  058%=      5-min Rain = 0
KCH1 141605Z 05008KT 31/21 A3012 RMK A01 T03120214  RH  056%=      5-min Rain = 0
KCH1 141606Z 05012KT 31/22 A3012 RMK A01 T03120216  RH  057%=      5-min Rain = 0
KCH1 141607Z 04012KT 31/22 A3012 RMK A01 T03130215  RH  056%=      5-min Rain = 0
KCH1 141608Z 04007G12KT 31/22 A3012 RMK A01 T03110217  RH  057%=      5-min Rain = 0
KCH1 141609Z 06010KT 31/22 A3012 RMK A01 T03120216  RH  057%=      5-min Rain = 0
KCH1 141610Z 05011KT 31/21 A3012 RMK A01 T03100214  RH  057%=      5-min Rain = 0
KCH1 141611Z 06010KT 31/21 A3012 RMK A01 T03080213  RH  057%=      5-min Rain = 0
KCH1 141612Z 06008KT 31/21 A3012 RMK A01 T03080213  RH  057%=      5-min Rain = 0
KCH1 141613Z 04009G14KT 31/22 A3012 RMK A01 T03110216  RH  057%=      5-min Rain = 0
KCH1 141614Z 03008KT 31/22 A3012 RMK A01 T03130217  RH  057%=      5-min Rain = 0
KCH1 141615Z 02007KT 31/22 A3012 RMK A01 T03140219  RH  057%=      5-min Rain = 0
KCH1 141616Z 01009KT 32/22 A3012 RMK A01 T03150216  RH  056%=      5-min Rain = 0
KCH1 141617Z 01010G15KT 31/22 A3012 RMK A01 T03130215  RH  056%=      5-min Rain = 0
KCH1 141618Z 01009KT 31/22 A3012 RMK A01 T03100215  RH  057%=      5-min Rain = 0
KCH1 141619Z 02009G14KT 31/22 A3012 RMK A01 T03090215  RH  057%=      5-min Rain = 0
KCH1 141620Z 04009KT 31/22 A3012 RMK A01 T03100216  RH  057%=      5-min Rain = 0
KCH1 141621Z 02010KT 31/22 A3012 RMK A01 T03120216  RH  056%=      5-min Rain = 0
KCH1 141622Z 03010KT 31/21 A3012 RMK A01 T03130214  RH  056%=      5-min Rain = 0
KCH1 141623Z 04007G12KT 31/22 A3012 RMK A01 T03130215  RH  056%=      5-min Rain = 0
KCH1 141624Z 03008KT 32/22 A3012 RMK A01 T03150217  RH  056%=      5-min Rain = 0
KCH1 141625Z 03010G15KT 32/22 A3012 RMK A01 T03170218  RH  056%=      5-min Rain = 0
KCH1 141626Z 03011KT 32/22 A3012 RMK A01 T03180217  RH  055%=      5-min Rain = 0
KCH1 141627Z 02009KT 32/22 A3012 RMK A01 T03160217  RH  056%=      5-min Rain = 0
KCH1 141628Z 03010KT 32/22 A3012 RMK A01 T03160217  RH  056%=      5-min Rain = 0
KCH1 141629Z 04008KT 32/22 A3012 RMK A01 T03150216  RH  056%=      5-min Rain = 0
KCH1 141630Z 02008KT 31/22 A3012 RMK A01 T03140216  RH  056%=      5-min Rain = 0
KCH1 141631Z 02011KT 32/22 A3012 RMK A01 T03150216  RH  056%=      5-min Rain = 0
KCH1 141632Z 03012KT 32/22 A3012 RMK A01 T03170217  RH  056%=      5-min Rain = 0
KCH1 141633Z 04011KT 31/22 A3012 RMK A01 T03140216  RH  056%=      5-min Rain = 0
KCH1 141634Z 04008KT 31/22 A3012 RMK A01 T03100215  RH  057%=      5-min Rain = 0
KCH1 141635Z 05010KT 31/21 A3012 RMK A01 T03070214  RH  058%=      5-min Rain = 0
KCH1 141636Z 04011KT 31/22 A3012 RMK A01 T03060218  RH  060%=      5-min Rain = 0
KCH1 141637Z 03007KT 31/22 A3012 RMK A01 T03070218  RH  059%=      5-min Rain = 0
KCH1 141638Z 03006G11KT 31/22 A3012 RMK A01 T03110219  RH  058%=      5-min Rain = 0
KCH1 141639Z 02008KT 32/22 A3012 RMK A01 T03160222  RH  058%=      5-min Rain = 0
KCH1 141640Z 03007KT 32/22 A3012 RMK A01 T03180222  RH  057%=      5-min Rain = 0
KCH1 141641Z 02006KT 32/22 A3012 RMK A01 T03160222  RH  058%=      5-min Rain = 0
KCH1 141642Z 02012G17KT 32/22 A3012 RMK A01 T03150221  RH  057%=      5-min Rain = 0
KCH1 141643Z 04011KT 32/22 A3012 RMK A01 T03150218  RH  057%=      5-min Rain = 0
KCH1 141644Z 06008KT 32/22 A3012 RMK A01 T03150216  RH  056%=      5-min Rain = 0
KCH1 141645Z 04008KT 31/22 A3012 RMK A01 T03140216  RH  056%=      5-min Rain = 0
KCH1 141646Z 02010KT 31/22 A3012 RMK A01 T03140219  RH  057%=      5-min Rain = 0
KCH1 141647Z 01010KT 32/22 A3012 RMK A01 T03160220  RH  057%=      5-min Rain = 0
KCH1 141648Z 01010G16KT 31/22 A3012 RMK A01 T03130219  RH  058%=      5-min Rain = 0
KCH1 141649Z 01009KT 31/22 A3012 RMK A01 T03080218  RH  059%=      5-min Rain = 0
KCH1 141650Z 01008KT 31/22 A3012 RMK A01 T03070220  RH  060%=      5-min Rain = 0
KCH1 141651Z 03011G17KT 31/22 A3012 RMK A01 T03080220  RH  060%=      5-min Rain = 0
KCH1 141652Z 04012KT 31/22 A3012 RMK A01 T03100219  RH  059%=      5-min Rain = 0
KCH1 141653Z 04007KT 31/22 A3012 RMK A01 T03120222  RH  059%=      5-min Rain = 0
KCH1 141654Z 03006KT 32/22 A3012 RMK A01 T03170222  RH  057%=      5-min Rain = 0
KCH1 141655Z 02007KT 32/22 A3012 RMK A01 T03180221  RH  056%=      5-min Rain = 0
KCH1 141656Z 04008KT 32/22 A3012 RMK A01 T03180219  RH  056%=      5-min Rain = 0
KCH1 141657Z 04010KT 32/22 A3012 RMK A01 T03150220  RH  057%=      5-min Rain = 0
KCH1 141658Z 04009KT 31/22 A3012 RMK A01 T03140221  RH  058%=      5-min Rain = 0
KCH1 141659Z 03008KT 31/22 A3012 RMK A01 T03140221  RH  058%=      5-min Rain = 0
KCH1 141700Z 02010KT 32/22 A3012 RMK A01 T03150221  RH  057%=      5-min Rain = 0
KCH1 141701Z 02009KT 31/22 A3012 RMK A01 T03140221  RH  058%=      5-min Rain = 0
KCH1 141702Z 02011KT 31/22 A3012 RMK A01 T03130220  RH  058%=      5-min Rain = 0
KCH1 141703Z 04011KT 31/22 A3012 RMK A01 T03100219  RH  059%=      5-min Rain = 0
KCH1 141704Z 03009KT 31/22 A3012 RMK A01 T03080219  RH  059%=      5-min Rain = 0
KCH1 141705Z 04010KT 31/22 A3012 RMK A01 T03080220  RH  059%=      5-min Rain = 0
KCH1 141706Z 05013KT 31/22 A3012 RMK A01 T03090221  RH  059%=      5-min Rain = 0
KCH1 141707Z 04006KT 31/22 A3012 RMK A01 T03100221  RH  059%=      5-min Rain = 0
KCH1 141708Z 02006KT 31/22 A3012 RMK A01 T03090220  RH  059%=      5-min Rain = 0
KCH1 141709Z 02005KT 31/22 A3012 RMK A01 T03080218  RH  059%=      5-min Rain = 0
KCH1 141710Z 02007KT 31/22 A3012 RMK A01 T03080220  RH  060%=      5-min Rain = 0
KCH1 141711Z 05006KT 31/22 A3012 RMK A01 T03080220  RH  059%=      5-min Rain = 0
KCH1 141712Z 05007KT 31/22 A3012 RMK A01 T03110219  RH  058%=      5-min Rain = 0
KCH1 141713Z 02005KT 31/22 A3012 RMK A01 T03100220  RH  059%=      5-min Rain = 0
KCH1 141714Z 03009KT 31/22 A3012 RMK A01 T03100221  RH  059%=      5-min Rain = 0
KCH1 141715Z 04009KT 31/22 A3012 RMK A01 T03100220  RH  059%=      5-min Rain = 0
KCH1 141716Z 04009KT 31/22 A3012 RMK A01 T03080220  RH  059%=      5-min Rain = 0
KCH1 141717Z 04008KT 31/22 A3012 RMK A01 T03060221  RH  060%=      5-min Rain = 0
KCH1 141718Z 05012KT 31/22 A3012 RMK A01 T03050220  RH  060%=      5-min Rain = 0
KCH1 141719Z 06010KT 31/22 A3012 RMK A01 T03050219  RH  060%=      5-min Rain = 0
KCH1 141720Z 05008KT 30/22 A3012 RMK A01 T03040219  RH  060%=      5-min Rain = 0
KCH1 141721Z 04012KT 31/22 A3012 RMK A01 T03050220  RH  060%=      5-min Rain = 0
KCH1 141722Z 04009KT 31/22 A3012 RMK A01 T03080220  RH  059%=      5-min Rain = 0
KCH1 141723Z 02006KT 31/22 A3012 RMK A01 T03110221  RH  059%=      5-min Rain = 0
KCH1 141724Z 03008KT 31/22 A3012 RMK A01 T03100220  RH  059%=      5-min Rain = 0
KCH1 141725Z 03010KT 31/22 A3012 RMK A01 T03100219  RH  059%=      5-min Rain = 0
KCH1 141726Z 02007KT 31/22 A3012 RMK A01 T03110218  RH  058%=      5-min Rain = 0
KCH1 141727Z 06009KT 31/22 A3012 RMK A01 T03110219  RH  058%=      5-min Rain = 0
KCH1 141728Z 07009KT 31/22 A3012 RMK A01 T03090217  RH  058%=      5-min Rain = 0
KCH1 141729Z 08006KT 31/22 A3012 RMK A01 T03070218  RH  059%=      5-min Rain = 0
KCH1 141730Z 07008KT 31/22 A3012 RMK A01 T03080219  RH  059%=      5-min Rain = 0
KCH1 141731Z 07008KT 31/22 A3012 RMK A01 T03120220  RH  058%=      5-min Rain = 0
KCH1 141732Z 06006KT 32/22 A3012 RMK A01 T03160221  RH  057%=      5-min Rain = 0
KCH1 141733Z 02004KT 32/22 A3012 RMK A01 T03190222  RH  057%=      5-min Rain = 0
KCH1 141734Z 02006G11KT 32/22 A3011 RMK A01 T03220223  RH  056%=      5-min Rain = 0
KCH1 141735Z 03003KT 33/23 A3011 RMK A01 T03270225  RH  055%=      5-min Rain = 0
KCH1 141736Z 04005KT 33/22 A3011 RMK A01 T03290223  RH  054%=      5-min Rain = 0
KCH1 141737Z 08006KT 33/22 A3011 RMK A01 T03280222  RH  054%=      5-min Rain = 0
KCH1 141738Z 06008KT 33/22 A3011 RMK A01 T03280218  RH  053%=      5-min Rain = 0
KCH1 141739Z 04008KT 33/22 A3011 RMK A01 T03270218  RH  052%=      5-min Rain = 0
KCH1 141740Z 05010KT 33/22 A3011 RMK A01 T03290215  RH  051%=      5-min Rain = 0
KCH1 141741Z 06007KT 33/21 A3011 RMK A01 T03300213  RH  050%=      5-min Rain = 0
KCH1 141742Z 05008KT 33/21 A3011 RMK A01 T03270212  RH  051%=      5-min Rain = 0
KCH1 141743Z 04004KT 32/22 A3011 RMK A01 T03220215  RH  053%=      5-min Rain = 0
KCH1 141744Z 05008G14KT 32/22 A3011 RMK A01 T03190217  RH  055%=      5-min Rain = 0
KCH1 141745Z 06012KT 32/22 A3011 RMK A01 T03210215  RH  054%=      5-min Rain = 0
KCH1 141746Z 07011KT 32/21 A3011 RMK A01 T03230214  RH  053%=      5-min Rain = 0
KCH1 141747Z 07009KT 32/21 A3011 RMK A01 T03240211  RH  051%=      5-min Rain = 0
KCH1 141748Z 08006KT 32/21 A3011 RMK A01 T03240211  RH  051%=      5-min Rain = 0
KCH1 141749Z 09005KT 32/21 A3011 RMK A01 T03240212  RH  052%=      5-min Rain = 0
KCH1 141750Z 09006KT 33/21 A301 RMK A01 T03250213  RH  052%=      5-min Rain = 0
KCH1 141751Z 08007KT 33/22 A301 RMK A01 T03260215  RH  052%=      5-min Rain = 0
KCH1 141752Z 05011KT 33/22 A301 RMK A01 T03270216  RH  052%=      5-min Rain = 0
KCH1 141753Z 04009KT 33/22 A301 RMK A01 T03250216  RH  053%=      5-min Rain = 0
KCH1 141754Z 03006KT 33/22 A301 RMK A01 T03260218  RH  053%=      5-min Rain = 0
KCH1 141755Z 03005KT 33/22 A301 RMK A01 T03310218  RH  052%=      5-min Rain = 0
KCH1 141756Z 06007KT 34/22 A301 RMK A01 T03350215  RH  049%=      5-min Rain = 0
KCH1 141757Z 07008KT 34/21 A301 RMK A01 T03360212  RH  048%=      5-min Rain = 0
KCH1 141758Z 06007KT 34/22 A301 RMK A01 T03350215  RH  050%=      5-min Rain = 0
KCH1 141759Z 05007KT 33/22 A301 RMK A01 T03320215  RH  050%=      5-min Rain = 0
KCH1 141800Z 07008KT 33/22 A301 RMK A01 T03300216  RH  051%=      5-min Rain = 0
KCH1 141801Z 08010KT 33/22 A301 RMK A01 T03280217  RH  052%=      5-min Rain = 0
KCH1 141802Z 07008KT 33/22 A301 RMK A01 T03280217  RH  052%=      5-min Rain = 0
KCH1 141803Z 05008KT 33/22 A301 RMK A01 T03270217  RH  052%=      5-min Rain = 0
KCH1 141804Z 05010KT 33/22 A301 RMK A01 T03270219  RH  053%=      5-min Rain = 0
KCH1 141805Z 05010KT 33/22 A301 RMK A01 T03330217  RH  051%=      5-min Rain = 0
KCH1 141806Z 06010KT 33/22 A301 RMK A01 T03310216  RH  051%=      5-min Rain = 0
KCH1 141807Z 07007KT 33/21 A301 RMK A01 T03280214  RH  051%=      5-min Rain = 0
KCH1 141808Z 03007KT 33/21 A301 RMK A01 T03250214  RH  052%=      5-min Rain = 0
KCH1 141809Z 01008KT 33/22 A301 RMK A01 T03280215  RH  051%=      5-min Rain = 0
KCH1 141810Z 02007KT 33/22 A301 RMK A01 T03320216  RH  051%=      5-min Rain = 0
KCH1 141811Z 02008KT 34/22 A301 RMK A01 T03360217  RH  050%=      5-min Rain = 0
KCH1 141812Z 02005G11KT 34/22 A301 RMK A01 T03370218  RH  050%=      5-min Rain = 0
KCH1 141813Z 05010KT 34/22 A301 RMK A01 T03410218  RH  049%=      5-min Rain = 0
KCH1 141814Z 06009KT 34/21 A301 RMK A01 T03400214  RH  048%=      5-min Rain = 0
KCH1 141815Z 06008KT 34/21 A301 RMK A01 T03380212  RH  048%=      5-min Rain = 0
KCH1 141816Z 05004KT 34/21 A3009 RMK A01 T03350213  RH  049%=      5-min Rain = 0
KCH1 141817Z 05008G14KT 33/21 A3009 RMK A01 T03340214  RH  050%=      5-min Rain = 0
KCH1 141818Z 05015KT 33/21 A3009 RMK A01 T03340211  RH  049%=      5-min Rain = 0
KCH1 141819Z 04012KT 33/21 A3009 RMK A01 T03340208  RH  048%=      5-min Rain = 0
KCH1 141820Z 04010KT 33/21 A301 RMK A01 T03330206  RH  047%=      5-min Rain = 0
KCH1 141821Z 05008KT 33/21 A3009 RMK A01 T03340206  RH  047%=      5-min Rain = 0
KCH1 141822Z 05003KT 33/21 A3009 RMK A01 T03330207  RH  048%=      5-min Rain = 0
KCH1 141823Z 09001KT 33/21 A3009 RMK A01 T03310207  RH  048%=      5-min Rain = 0
KCH1 141824Z 08002KT 33/21 A3009 RMK A01 T03300209  RH  049%=      5-min Rain = 0
KCH1 141825Z 06009KT 33/21 A3009 RMK A01 T03320212  RH  049%=      5-min Rain = 0
KCH1 141826Z 06009KT 34/22 A3009 RMK A01 T03380216  RH  049%=      5-min Rain = 0
KCH1 141827Z 06010KT 34/21 A3009 RMK A01 T03380213  RH  048%=      5-min Rain = 0
KCH1 141828Z 07012KT 34/21 A3009 RMK A01 T03360213  RH  048%=      5-min Rain = 0
KCH1 141829Z 05010KT 34/21 A3009 RMK A01 T03360214  RH  049%=      5-min Rain = 0
KCH1 141830Z 06008KT 34/21 A3009 RMK A01 T03360213  RH  049%=      5-min Rain = 0
KCH1 141831Z 08009KT 34/21 A3009 RMK A01 T03350214  RH  049%=      5-min Rain = 0
KCH1 141832Z 09007KT 33/21 A3009 RMK A01 T03340212  RH  049%=      5-min Rain = 0
KCH1 141833Z 09008KT 33/21 A3009 RMK A01 T03330213  RH  049%=      5-min Rain = 0
KCH1 141834Z 06007KT 33/21 A3009 RMK A01 T03340213  RH  049%=      5-min Rain = 0
KCH1 141835Z 05008KT 34/21 A3009 RMK A01 T03350214  RH  049%=      5-min Rain = 0
KCH1 141836Z 07007KT 34/21 A3009 RMK A01 T03380213  RH  048%=      5-min Rain = 0
KCH1 141837Z 06006KT 34/21 A3009 RMK A01 T03370214  RH  049%=      5-min Rain = 0
KCH1 141838Z 05008KT 34/22 A3009 RMK A01 T03440217  RH  048%=      5-min Rain = 0
KCH1 141839Z 05011KT 35/21 A3009 RMK A01 T03490214  RH  046%=      5-min Rain = 0
KCH1 141840Z 05012KT 35/21 A3009 RMK A01 T03480211  RH  045%=      5-min Rain = 0
KCH1 141841Z 05009KT 34/21 A3009 RMK A01 T03440206  RH  045%=      5-min Rain = 0
KCH1 141842Z 05008KT 34/21 A3009 RMK A01 T03390206  RH  046%=      5-min Rain = 0
KCH1 141843Z 05007G12KT 34/20 A3009 RMK A01 T03380203  RH  045%=      5-min Rain = 0
KCH1 141844Z 07009KT 34/20 A3009 RMK A01 T03380204  RH  045%=      5-min Rain = 0
KCH1 141845Z 07007KT 34/20 A3008 RMK A01 T03400203  RH  045%=      5-min Rain = 0
KCH1 141846Z 07009KT 34/21 A3008 RMK A01 T03420208  RH  046%=      5-min Rain = 0
KCH1 141847Z 07012KT 34/21 A3008 RMK A01 T03430207  RH  045%=      5-min Rain = 0
KCH1 141848Z 07010KT 34/21 A3008 RMK A01 T03410206  RH  045%=      5-min Rain = 0
KCH1 141849Z 07007KT 34/21 A3008 RMK A01 T03420206  RH  045%=      5-min Rain = 0
KCH1 141850Z 08003KT 34/20 A3008 RMK A01 T03420203  RH  044%=      5-min Rain = 0
KCH1 141851Z 09003KT 34/20 A3008 RMK A01 T03390201  RH  045%=      5-min Rain = 0
KCH1 141852Z 09005KT 34/20 A3008 RMK A01 T03370203  RH  046%=      5-min Rain = 0
KCH1 141853Z 06004KT 34/21 A3008 RMK A01 T03400208  RH  046%=      5-min Rain = 0
KCH1 141854Z 08010KT 34/21 A3007 RMK A01 T03440209  RH  045%=      5-min Rain = 0
KCH1 141855Z 06008KT 35/21 A3007 RMK A01 T03480209  RH  044%=      5-min Rain = 0
KCH1 141856Z 05005KT 35/21 A3007 RMK A01 T03460212  RH  046%=      5-min Rain = 0
KCH1 141857Z 03004KT 35/22 A3007 RMK A01 T03510216  RH  045%=      5-min Rain = 0
KCH1 141858Z 06004KT 36/21 A3007 RMK A01 T03560212  RH  043%=      5-min Rain = 0
KCH1 141859Z 08006KT 36/21 A3007 RMK A01 T03550210  RH  043%=      5-min Rain = 0
KCH1 141900Z 08004KT 35/21 A3007 RMK A01 T03530210  RH  043%=      5-min Rain = 0
KCH1 141901Z 09007KT 35/21 A3007 RMK A01 T03510209  RH  044%=      5-min Rain = 0
KCH1 141902Z 09007KT 35/21 A3007 RMK A01 T03480210  RH  045%=      5-min Rain = 0
KCH1 141903Z 08007KT 35/21 A3007 RMK A01 T03460210  RH  045%=      5-min Rain = 0
KCH1 141904Z 08007KT 35/20 A3007 RMK A01 T03480204  RH  043%=      5-min Rain = 0
KCH1 141905Z 04007KT 35/21 A3007 RMK A01 T03500207  RH  044%=      5-min Rain = 0
KCH1 141906Z 05011KT 35/21 A3007 RMK A01 T03500212  RH  045%=      5-min Rain = 0
KCH1 141907Z 06008KT 35/21 A3007 RMK A01 T03490209  RH  044%=      5-min Rain = 0
KCH1 141908Z 07009KT 35/21 A3007 RMK A01 T03460212  RH  046%=      5-min Rain = 0
KCH1 141909Z 08012KT 35/21 A3007 RMK A01 T03520211  RH  044%=      5-min Rain = 0
KCH1 141910Z 06009KT 35/21 A3007 RMK A01 T03540212  RH  044%=      5-min Rain = 0
KCH1 141911Z 05009KT 36/21 A3007 RMK A01 T03570213  RH  043%=      5-min Rain = 0
KCH1 141912Z 04006KT 36/21 A3007 RMK A01 T03580210  RH  042%=      5-min Rain = 0
KCH1 141913Z 02005KT 36/21 A3006 RMK A01 T03550210  RH  043%=      5-min Rain = 0
KCH1 141914Z 08009KT 36/21 A3006 RMK A01 T03550210  RH  043%=      5-min Rain = 0
KCH1 141915Z 06013KT 36/21 A3007 RMK A01 T03550210  RH  043%=      5-min Rain = 0
KCH1 141916Z 05011KT 35/21 A3007 RMK A01 T03510208  RH  043%=      5-min Rain = 0
KCH1 141917Z 08010KT 35/21 A3006 RMK A01 T03470209  RH  045%=      5-min Rain = 0
KCH1 141918Z 05009KT 35/21 A3006 RMK A01 T03460208  RH  045%=      5-min Rain = 0
KCH1 141919Z 05007KT 35/21 A3006 RMK A01 T03460211  RH  046%=      5-min Rain = 0
KCH1 141920Z 04011KT 35/21 A3006 RMK A01 T03500213  RH  045%=      5-min Rain = 0
KCH1 141921Z 05010KT 35/21 A3006 RMK A01 T03530212  RH  044%=      5-min Rain = 0
KCH1 141922Z 07011KT 35/21 A3006 RMK A01 T03520209  RH  044%=      5-min Rain = 0
KCH1 141923Z 08011KT 35/21 A3006 RMK A01 T03510208  RH  043%=      5-min Rain = 0
KCH1 141924Z 08010KT 35/21 A3006 RMK A01 T03490210  RH  045%=      5-min Rain = 0
KCH1 141925Z 11006KT 35/21 A3006 RMK A01 T03490211  RH  044%=      5-min Rain = 0
KCH1 141926Z 12005KT 35/21 A3006 RMK A01 T03480210  RH  045%=      5-min Rain = 0
KCH1 141927Z 11004KT 35/21 A3006 RMK A01 T03480209  RH  044%=      5-min Rain = 0
KCH1 141928Z 04004KT 35/21 A3006 RMK A01 T03500210  RH  044%=      5-min Rain = 0
KCH1 141929Z 08006G12KT 35/21 A3006 RMK A01 T03540210  RH  043%=      5-min Rain = 0
KCH1 141930Z 07014KT 36/20 A3006 RMK A01 T03570204  RH  041%=      5-min Rain = 0
KCH1 141931Z 07013KT 35/20 A3006 RMK A01 T03530203  RH  042%=      5-min Rain = 0
KCH1 141932Z 07012KT 35/20 A3006 RMK A01 T03520203  RH  042%=      5-min Rain = 0
KCH1 141933Z 07010KT 35/20 A3006 RMK A01 T03530202  RH  042%=      5-min Rain = 0
KCH1 141934Z 06008KT 36/20 A3006 RMK A01 T03560202  RH  041%=      5-min Rain = 0
KCH1 141935Z 05007KT 36/20 A3006 RMK A01 T03550201  RH  041%=      5-min Rain = 0
KCH1 141936Z 06007KT 35/20 A3005 RMK A01 T03520203  RH  042%=      5-min Rain = 0
KCH1 141937Z 08007KT 35/20 A3005 RMK A01 T03490202  RH  042%=      5-min Rain = 0
KCH1 141938Z 08009KT 35/20 A3005 RMK A01 T03520203  RH  042%=      5-min Rain = 0
KCH1 141939Z 08010KT 36/20 A3005 RMK A01 T03550201  RH  041%=      5-min Rain = 0
KCH1 141940Z 07008KT 36/20 A3005 RMK A01 T03550201  RH  041%=      5-min Rain = 0
KCH1 141941Z 05009KT 35/20 A3005 RMK A01 T03540201  RH  041%=      5-min Rain = 0
KCH1 141942Z 04009G15KT 36/20 A3005 RMK A01 T03570201  RH  040%=      5-min Rain = 0
KCH1 141943Z 04008KT 36/20 A3005 RMK A01 T03580202  RH  040%=      5-min Rain = 0
KCH1 141944Z 09005KT 36/20 A3005 RMK A01 T03580201  RH  040%=      5-min Rain = 0
KCH1 141945Z 10008KT 36/20 A3005 RMK A01 T03570201  RH  040%=      5-min Rain = 0
KCH1 141946Z 08010KT 36/20 A3004 RMK A01 T03570202  RH  041%=      5-min Rain = 0
KCH1 141947Z 08010KT 35/20 A3004 RMK A01 T03540204  RH  041%=      5-min Rain = 0
KCH1 141948Z 09010KT 36/21 A3004 RMK A01 T03550205  RH  042%=      5-min Rain = 0
KCH1 141949Z 08008KT 36/21 A3004 RMK A01 T03570205  RH  041%=      5-min Rain = 0
KCH1 141950Z 08009KT 36/21 A3004 RMK A01 T03570207  RH  042%=      5-min Rain = 0
KCH1 141951Z 07010KT 36/21 A3004 RMK A01 T03590205  RH  041%=      5-min Rain = 0
KCH1 141952Z 06010KT 36/20 A3004 RMK A01 T03570201  RH  040%=      5-min Rain = 0
KCH1 141953Z 06010KT 35/20 A3004 RMK A01 T03540200  RH  040%=      5-min Rain = 0
KCH1 141954Z 06009KT 35/20 A3004 RMK A01 T03540201  RH  041%=      5-min Rain = 0
KCH1 141955Z 06008KT 35/20 A3003 RMK A01 T03540202  RH  041%=      5-min Rain = 0
KCH1 141956Z 03007KT 36/20 A3003 RMK A01 T03590204  RH  041%=      5-min Rain = 0
KCH1 141957Z 04006KT 36/20 A3003 RMK A01 T03610203  RH  040%=      5-min Rain = 0
KCH1 141958Z 08009G17KT 36/21 A3003 RMK A01 T03630205  RH  040%=      5-min Rain = 0
KCH1 141959Z 07008KT 36/21 A3003 RMK A01 T03630205  RH  040%=      5-min Rain = 0
KCH1 142000Z 09009KT 36/21 A3003 RMK A01 T03610205  RH  040%=      5-min Rain = 0
KCH1 142001Z 07010KT 36/20 A3003 RMK A01 T03610204  RH  040%=      5-min Rain = 0
KCH1 142002Z 06012KT 36/21 A3003 RMK A01 T03630205  RH  040%=      5-min Rain = 0
KCH1 142003Z 06009KT 37/20 A3003 RMK A01 T03650203  RH  039%=      5-min Rain = 0
KCH1 142004Z 08010KT 36/20 A3003 RMK A01 T03630202  RH  039%=      5-min Rain = 0
KCH1 142005Z 08010KT 36/20 A3003 RMK A01 T03590202  RH  040%=      5-min Rain = 0
KCH1 142006Z 05008KT 36/20 A3003 RMK A01 T03580201  RH  040%=      5-min Rain = 0
KCH1 142007Z 06008KT 35/20 A3003 RMK A01 T03540201  RH  041%=      5-min Rain = 0
KCH1 142008Z 07007KT 35/20 A3003 RMK A01 T03540199  RH  040%=      5-min Rain = 0
KCH1 142009Z 06012KT 36/20 A3003 RMK A01 T03570202  RH  040%=      5-min Rain = 0
KCH1 142010Z 06011KT 36/20 A3003 RMK A01 T03600202  RH  040%=      5-min Rain = 0
KCH1 142011Z 05009KT 36/20 A3003 RMK A01 T03600203  RH  040%=      5-min Rain = 0
KCH1 142012Z 04008KT 36/21 A3003 RMK A01 T03600205  RH  040%=      5-min Rain = 0
KCH1 142013Z 03007KT 36/20 A3003 RMK A01 T03610203  RH  040%=      5-min Rain = 0
KCH1 142014Z 02007KT 36/20 A3002 RMK A01 T03620203  RH  040%=      5-min Rain = 0
KCH1 142015Z 03005KT 36/20 A3002 RMK A01 T03620203  RH  040%=      5-min Rain = 0
KCH1 142016Z 05010KT 36/21 A3002 RMK A01 T03630206  RH  040%=      5-min Rain = 0
KCH1 142017Z 06009KT 37/20 A3002 RMK A01 T03650204  RH  039%=      5-min Rain = 0
KCH1 142018Z 05002KT 36/21 A3002 RMK A01 T03640205  RH  040%=      5-min Rain = 0
KCH1 142019Z 07005KT 37/20 A3002 RMK A01 T03650204  RH  039%=      5-min Rain = 0
KCH1 142020Z 07012KT 36/21 A3002 RMK A01 T03640205  RH  040%=      5-min Rain = 0
KCH1 142021Z 06011KT 36/21 A3002 RMK A01 T03620205  RH  040%=      5-min Rain = 0
KCH1 142022Z 06008KT 36/20 A3002 RMK A01 T03610204  RH  040%=      5-min Rain = 0
KCH1 142023Z 06010KT 36/20 A3002 RMK A01 T03580203  RH  040%=      5-min Rain = 0
KCH1 142024Z 07006KT 36/20 A3002 RMK A01 T03580204  RH  041%=      5-min Rain = 0
KCH1 142025Z 09006KT 36/21 A3002 RMK A01 T03600205  RH  040%=      5-min Rain = 0
KCH1 142026Z 12008KT 36/20 A3002 RMK A01 T03610203  RH  040%=      5-min Rain = 0
KCH1 142027Z 13006KT 36/20 A3002 RMK A01 T03620201  RH  039%=      5-min Rain = 0
KCH1 142028Z 09008G15KT 36/20 A3002 RMK A01 T03630202  RH  039%=      5-min Rain = 0
KCH1 142029Z 05012KT 37/20 A3002 RMK A01 T03650204  RH  039%=      5-min Rain = 0
KCH1 142030Z 09011KT 36/20 A3002 RMK A01 T03620202  RH  039%=      5-min Rain = 0
KCH1 142031Z 08009KT 36/20 A3002 RMK A01 T03570200  RH  040%=      5-min Rain = 0
KCH1 142032Z 07012KT 36/20 A3002 RMK A01 T03560202  RH  041%=      5-min Rain = 0
KCH1 142033Z 08010KT 36/20 A3002 RMK A01 T03600203  RH  040%=      5-min Rain = 0
KCH1 142034Z 08010KT 36/20 A3002 RMK A01 T03610203  RH  040%=      5-min Rain = 0
KCH1 142035Z 05008KT 36/20 A3001 RMK A01 T03590204  RH  040%=      5-min Rain = 0
KCH1 142036Z 07007KT 36/21 A3001 RMK A01 T03610205  RH  040%=      5-min Rain = 0
KCH1 142037Z 07007KT 36/20 A3001 RMK A01 T03620203  RH  040%=      5-min Rain = 0
KCH1 142038Z 08006KT 36/20 A3001 RMK A01 T03590202  RH  040%=      5-min Rain = 0
KCH1 142039Z 08004KT 36/20 A3001 RMK A01 T03590200  RH  040%=      5-min Rain = 0
KCH1 142040Z 06007KT 36/20 A3001 RMK A01 T03590200  RH  040%=      5-min Rain = 0
KCH1 142041Z 07009KT 36/20 A3001 RMK A01 T03570201  RH  040%=      5-min Rain = 0
KCH1 142042Z 07012KT 36/20 A3001 RMK A01 T03560202  RH  041%=      5-min Rain = 0
KCH1 142043Z 08010KT 36/20 A3001 RMK A01 T03560202  RH  041%=      5-min Rain = 0
KCH1 142044Z 07007KT 36/20 A3001 RMK A01 T03570202  RH  041%=      5-min Rain = 0
KCH1 142045Z 07010KT 36/20 A3001 RMK A01 T03590203  RH  040%=      5-min Rain = 0
KCH1 142046Z 07012KT 36/20 A3001 RMK A01 T03600204  RH  040%=      5-min Rain = 0
KCH1 142047Z 08014KT 36/20 A3001 RMK A01 T03600202  RH  040%=      5-min Rain = 0
KCH1 142048Z 07013KT 36/20 A3001 RMK A01 T03560201  RH  040%=      5-min Rain = 0
KCH1 142049Z 07011KT 35/20 A3001 RMK A01 T03530200  RH  041%=      5-min Rain = 0
KCH1 142050Z 09009KT 35/20 A3001 RMK A01 T03500201  RH  042%=      5-min Rain = 0
KCH1 142051Z 11007KT 35/20 A3001 RMK A01 T03490201  RH  042%=      5-min Rain = 0
KCH1 142052Z 08005G10KT 35/20 A3001 RMK A01 T03480200  RH  042%=      5-min Rain = 0
KCH1 142053Z 10003KT 35/20 A3001 RMK A01 T03470200  RH  042%=      5-min Rain = 0
KCH1 142054Z 08006KT 35/20 A3001 RMK A01 T03490202  RH  042%=      5-min Rain = 0
KCH1 142055Z 08009KT 35/20 A3001 RMK A01 T03530202  RH  041%=      5-min Rain = 0
KCH1 142056Z 06008KT 35/20 A3001 RMK A01 T03540201  RH  041%=      5-min Rain = 0
KCH1 142057Z 06004KT 36/20 A3001 RMK A01 T03550199  RH  040%=      5-min Rain = 0
KCH1 142058Z 05007KT 36/20 A3001 RMK A01 T03560201  RH  040%=      5-min Rain = 0
KCH1 142059Z 07011KT 36/20 A3001 RMK A01 T03610203  RH  040%=      5-min Rain = 0
KCH1 142100Z 09006KT 36/20 A3001 RMK A01 T03630201  RH  039%=      5-min Rain = 0
KCH1 142101Z 09006KT 36/20 A3001 RMK A01 T03610202  RH  039%=      5-min Rain = 0
KCH1 142102Z 06011KT 36/20 A3001 RMK A01 T03620201  RH  039%=      5-min Rain = 0
KCH1 142103Z 04008KT 36/20 A3001 RMK A01 T03640201  RH  039%=      5-min Rain = 0
KCH1 142104Z 05008KT 36/20 A3001 RMK A01 T03630202  RH  039%=      5-min Rain = 0
KCH1 142105Z 07007KT 37/20 A3001 RMK A01 T03650202  RH  039%=      5-min Rain = 0
KCH1 142106Z 08008KT 37/20 A3001 RMK A01 T03690203  RH  038%=      5-min Rain = 0
KCH1 142107Z 08010KT 37/20 A3001 RMK A01 T03710202  RH  037%=      5-min Rain = 0
KCH1 142108Z 06011KT 37/20 A3001 RMK A01 T03700201  RH  037%=      5-min Rain = 0
KCH1 142109Z 07009KT 37/20 A3001 RMK A01 T03660201  RH  038%=      5-min Rain = 0
KCH1 142110Z 08009KT 36/20 A3001 RMK A01 T03630200  RH  039%=      5-min Rain = 0
KCH1 142111Z 06009KT 36/20 A3001 RMK A01 T03580199  RH  039%=      5-min Rain = 0
KCH1 142112Z 05013KT 35/20 A3001 RMK A01 T03540200  RH  041%=      5-min Rain = 0
KCH1 142113Z 06011KT 35/20 A3001 RMK A01 T03510198  RH  041%=      5-min Rain = 0
KCH1 142114Z 05008KT 35/20 A3001 RMK A01 T03490200  RH  042%=      5-min Rain = 0
KCH1 142115Z 07010KT 35/20 A3001 RMK A01 T03490200  RH  042%=      5-min Rain = 0
KCH1 142116Z 08009KT 35/20 A3001 RMK A01 T03490200  RH  042%=      5-min Rain = 0
KCH1 142117Z 09005KT 35/20 A3001 RMK A01 T03500201  RH  042%=      5-min Rain = 0
KCH1 142118Z 10004KT 35/20 A3001 RMK A01 T03530200  RH  041%=      5-min Rain = 0
KCH1 142119Z 07003KT 35/20 A3001 RMK A01 T03540200  RH  041%=      5-min Rain = 0
KCH1 142120Z 05008KT 36/20 A3001 RMK A01 T03570203  RH  041%=      5-min Rain = 0
KCH1 142121Z 07011KT 36/20 A3001 RMK A01 T03590202  RH  040%=      5-min Rain = 0
KCH1 142122Z 06010KT 36/20 A3001 RMK A01 T03580203  RH  040%=      5-min Rain = 0
KCH1 142123Z 08009KT 36/20 A3001 RMK A01 T03560201  RH  041%=      5-min Rain = 0
KCH1 142124Z 07006KT 35/20 A3001 RMK A01 T03520200  RH  041%=      5-min Rain = 0
KCH1 142125Z 08006KT 35/20 A3001 RMK A01 T03500201  RH  042%=      5-min Rain = 0
KCH1 142126Z 08008KT 35/20 A3001 RMK A01 T03520201  RH  041%=      5-min Rain = 0
KCH1 142127Z 08008KT 36/20 A3001 RMK A01 T03550201  RH  041%=      5-min Rain = 0
KCH1 142128Z 08006KT 36/20 A3001 RMK A01 T03570202  RH  040%=      5-min Rain = 0
KCH1 142129Z 08010KT 36/20 A30 RMK A01 T03620204  RH  040%=      5-min Rain = 0
KCH1 142130Z 08010KT 36/20 A30 RMK A01 T03620204  RH  040%=      5-min Rain = 0
KCH1 142131Z 09013KT 36/20 A30 RMK A01 T03620203  RH  040%=      5-min Rain = 0
KCH1 142132Z 09010KT 36/20 A30 RMK A01 T03610203  RH  040%=      5-min Rain = 0
KCH1 142133Z 08011KT 36/20 A30 RMK A01 T03620204  RH  040%=      5-min Rain = 0
KCH1 142134Z 08011KT 36/20 A30 RMK A01 T03630202  RH  039%=      5-min Rain = 0
KCH1 142135Z 08011KT 36/20 A30 RMK A01 T03610201  RH  039%=      5-min Rain = 0
KCH1 142136Z 05009KT 36/20 A30 RMK A01 T03580201  RH  040%=      5-min Rain = 0
KCH1 142137Z 05006KT 36/20 A30 RMK A01 T03580201  RH  040%=      5-min Rain = 0
KCH1 142138Z 04006KT 36/20 A30 RMK A01 T03600202  RH  040%=      5-min Rain = 0
KCH1 142139Z 04004KT 36/20 A30 RMK A01 T03620202  RH  040%=      5-min Rain = 0
KCH1 142140Z 08008KT 37/20 A30 RMK A01 T03650204  RH  039%=      5-min Rain = 0
KCH1 142141Z 08007KT 37/20 A30 RMK A01 T03670203  RH  038%=      5-min Rain = 0
KCH1 142142Z 10006KT 37/20 A30 RMK A01 T03700203  RH  038%=      5-min Rain = 0
KCH1 142143Z 09007KT 37/20 A30 RMK A01 T03710201  RH  037%=      5-min Rain = 0
KCH1 142144Z 05009KT 37/20 A30 RMK A01 T03690202  RH  038%=      5-min Rain = 0
KCH1 142145Z 06005KT 37/20 A30 RMK A01 T03650201  RH  039%=      5-min Rain = 0
KCH1 142146Z 06005KT 36/20 A30 RMK A01 T03630200  RH  039%=      5-min Rain = 0
KCH1 142147Z 06008KT 36/20 A2999 RMK A01 T03640203  RH  039%=      5-min Rain = 0
KCH1 142148Z 06009KT 37/21 A2999 RMK A01 T03680205  RH  039%=      5-min Rain = 0
KCH1 142149Z 06012KT 37/20 A2999 RMK A01 T03700202  RH  038%=      5-min Rain = 0
KCH1 142150Z 06011KT 37/20 A2999 RMK A01 T03660196  RH  037%=      5-min Rain = 0
KCH1 142151Z 07011KT 36/20 A2999 RMK A01 T03620197  RH  038%=      5-min Rain = 0
KCH1 142152Z 07012KT 36/20 A2999 RMK A01 T03620196  RH  038%=      5-min Rain = 0
KCH1 142153Z 08009KT 36/20 A2999 RMK A01 T03640198  RH  038%=      5-min Rain = 0
KCH1 142154Z 07011KT 37/20 A2999 RMK A01 T03660198  RH  038%=      5-min Rain = 0
KCH1 142155Z 06009KT 36/20 A2999 RMK A01 T03640199  RH  038%=      5-min Rain = 0
KCH1 142156Z 07010KT 36/20 A2999 RMK A01 T03620198  RH  038%=      5-min Rain = 0
KCH1 142157Z 07008KT 36/20 A2999 RMK A01 T03610197  RH  038%=      5-min Rain = 0
KCH1 142158Z 05009KT 36/20 A2999 RMK A01 T03600197  RH  039%=      5-min Rain = 0
KCH1 142159Z 04008KT 36/20 A2999 RMK A01 T03630198  RH  038%=      5-min Rain = 0
KCH1 142200Z 04009KT 37/20 A2999 RMK A01 T03650196  RH  037%=      5-min Rain = 0
KCH1 142201Z 04009KT 36/20 A2999 RMK A01 T03630196  RH  038%=      5-min Rain = 0
KCH1 142202Z 06007KT 36/20 A2999 RMK A01 T03620196  RH  038%=      5-min Rain = 0
KCH1 142203Z 07007KT 36/20 A2999 RMK A01 T03610198  RH  038%=      5-min Rain = 0
KCH1 142204Z 04006KT 36/20 A2999 RMK A01 T03620198  RH  038%=      5-min Rain = 0
KCH1 142205Z 04004KT 36/20 A2999 RMK A01 T03630195  RH  038%=      5-min Rain = 0
KCH1 142206Z 06004KT 36/20 A2999 RMK A01 T03630197  RH  038%=      5-min Rain = 0
KCH1 142207Z 07006G13KT 36/20 A2999 RMK A01 T03640197  RH  038%=      5-min Rain = 0
KCH1 142208Z 05009KT 37/20 A2999 RMK A01 T03650197  RH  038%=      5-min Rain = 0
KCH1 142209Z 05006KT 36/20 A2999 RMK A01 T03630196  RH  038%=      5-min Rain = 0
KCH1 142210Z 09005KT 36/20 A2999 RMK A01 T03620196  RH  038%=      5-min Rain = 0
KCH1 142211Z 06006G12KT 36/20 A2999 RMK A01 T03630196  RH  038%=      5-min Rain = 0
KCH1 142212Z 04010KT 36/20 A2999 RMK A01 T03630199  RH  038%=      5-min Rain = 0
KCH1 142213Z 02009KT 37/20 A2999 RMK A01 T03660197  RH  037%=      5-min Rain = 0
KCH1 142214Z 03009G14KT 37/20 A2999 RMK A01 T03670197  RH  037%=      5-min Rain = 0
KCH1 142215Z 03008KT 37/20 A2999 RMK A01 T03670195  RH  037%=      5-min Rain = 0
KCH1 142216Z 03007KT 37/20 A2999 RMK A01 T03680196  RH  037%=      5-min Rain = 0
KCH1 142217Z 02007KT 37/20 A2999 RMK A01 T03700197  RH  037%=      5-min Rain = 0
KCH1 142218Z 02006KT 37/20 A2999 RMK A01 T03720198  RH  036%=      5-min Rain = 0
KCH1 142219Z 04004KT 38/20 A2999 RMK A01 T03750199  RH  036%=      5-min Rain = 0
KCH1 142220Z 06007KT 37/20 A2999 RMK A01 T03740198  RH  036%=      5-min Rain = 0
KCH1 142221Z 05005KT 37/20 A2999 RMK A01 T03700200  RH  037%=      5-min Rain = 0
KCH1 142222Z 07009KT 37/20 A2999 RMK A01 T03670200  RH  038%=      5-min Rain = 0
KCH1 142223Z 06009KT 37/20 A2999 RMK A01 T03660199  RH  038%=      5-min Rain = 0
KCH1 142224Z 07008KT 37/20 A2999 RMK A01 T03650200  RH  038%=      5-min Rain = 0
KCH1 142225Z 08008KT 37/20 A2999 RMK A01 T03670202  RH  038%=      5-min Rain = 0
KCH1 142226Z 08008KT 37/20 A2999 RMK A01 T03690201  RH  038%=      5-min Rain = 0
KCH1 142227Z 06009G14KT 37/20 A2999 RMK A01 T03680201  RH  038%=      5-min Rain = 0
KCH1 142228Z 06013KT 37/20 A2999 RMK A01 T03680199  RH  037%=      5-min Rain = 0
KCH1 142229Z 05011KT 37/20 A2999 RMK A01 T03660198  RH  038%=      5-min Rain = 0
KCH1 142230Z 04010KT 36/20 A2999 RMK A01 T03630199  RH  038%=      5-min Rain = 0
KCH1 142231Z 07010KT 37/20 A2999 RMK A01 T03650199  RH  038%=      5-min Rain = 0
KCH1 142232Z 08011KT 37/20 A2999 RMK A01 T03650197  RH  038%=      5-min Rain = 0
KCH1 142233Z 08010KT 36/20 A2999 RMK A01 T03630197  RH  038%=      5-min Rain = 0
KCH1 142234Z 07007KT 36/20 A2999 RMK A01 T03630198  RH  038%=      5-min Rain = 0
KCH1 142235Z 07008KT 37/20 A2999 RMK A01 T03650197  RH  038%=      5-min Rain = 0
KCH1 142236Z 05008KT 36/20 A2999 RMK A01 T03640197  RH  038%=      5-min Rain = 0
KCH1 142237Z 03007KT 36/20 A2999 RMK A01 T03620195  RH  038%=      5-min Rain = 0
KCH1 142238Z 07007KT 36/20 A2999 RMK A01 T03620197  RH  038%=      5-min Rain = 0
KCH1 142239Z 07008KT 36/20 A2999 RMK A01 T03640199  RH  038%=      5-min Rain = 0
KCH1 142240Z 08005KT 37/20 A2999 RMK A01 T03650199  RH  038%=      5-min Rain = 0
KCH1 142241Z 12004KT 36/20 A2999 RMK A01 T03640197  RH  038%=      5-min Rain = 0
KCH1 142242Z 11006KT 36/20 A2999 RMK A01 T03620198  RH  038%=      5-min Rain = 0
KCH1 142243Z 10006KT 36/20 A2999 RMK A01 T03620197  RH  038%=      5-min Rain = 0
KCH1 142244Z 07006G11KT 36/20 A2999 RMK A01 T03620198  RH  039%=      5-min Rain = 0
KCH1 142245Z 07010KT 36/20 A2999 RMK A01 T03620200  RH  039%=      5-min Rain = 0
KCH1 142246Z 08008KT 36/20 A2999 RMK A01 T03630200  RH  039%=      5-min Rain = 0
KCH1 142247Z 07011KT 36/20 A2999 RMK A01 T03630201  RH  039%=      5-min Rain = 0
KCH1 142248Z 06013KT 36/20 A2999 RMK A01 T03620201  RH  039%=      5-min Rain = 0
KCH1 142249Z 06011KT 36/20 A2999 RMK A01 T03610201  RH  039%=      5-min Rain = 0
KCH1 142250Z 06012KT 36/20 A2999 RMK A01 T03610200  RH  039%=      5-min Rain = 0
KCH1 142251Z 06010KT 36/20 A2999 RMK A01 T03590199  RH  039%=      5-min Rain = 0
KCH1 142252Z 08011KT 36/20 A2999 RMK A01 T03600200  RH  039%=      5-min Rain = 0
KCH1 142253Z 08008KT 36/20 A2999 RMK A01 T03600196  RH  038%=      5-min Rain = 0
KCH1 142254Z 07010KT 36/20 A2999 RMK A01 T03590198  RH  039%=      5-min Rain = 0
KCH1 142255Z 07009KT 36/20 A2999 RMK A01 T03610198  RH  039%=      5-min Rain = 0
KCH1 142256Z 08006KT 36/20 A2999 RMK A01 T03610197  RH  038%=      5-min Rain = 0
KCH1 142257Z 07008KT 36/20 A2999 RMK A01 T03610199  RH  039%=      5-min Rain = 0
KCH1 142258Z 09006KT 36/20 A2999 RMK A01 T03590199  RH  039%=      5-min Rain = 0
KCH1 142259Z 09007KT 36/20 A2999 RMK A01 T03580198  RH  039%=      5-min Rain = 0
KCH1 142300Z 09008KT 36/20 A2999 RMK A01 T03560197  RH  039%=      5-min Rain = 0
KCH1 142301Z 09006KT 36/20 A2999 RMK A01 T03560196  RH  039%=      5-min Rain = 0
KCH1 142302Z 10007KT 36/20 A2999 RMK A01 T03560196  RH  039%=      5-min Rain = 0
KCH1 142303Z 10005KT 36/20 A2999 RMK A01 T03570195  RH  039%=      5-min Rain = 0
KCH1 142304Z 09003KT 36/20 A2999 RMK A01 T03570197  RH  039%=      5-min Rain = 0
KCH1 142305Z 11004KT 36/20 A2999 RMK A01 T03590196  RH  038%=      5-min Rain = 0
KCH1 142306Z 12005KT 36/20 A2999 RMK A01 T03600195  RH  038%=      5-min Rain = 0
KCH1 142307Z 13005KT 36/20 A2999 RMK A01 T03600195  RH  038%=      5-min Rain = 0
KCH1 142308Z 12006KT 36/20 A2999 RMK A01 T03610196  RH  038%=      5-min Rain = 0
KCH1 142309Z 13004KT 36/20 A2999 RMK A01 T03620195  RH  038%=      5-min Rain = 0
KCH1 142310Z 13002KT 36/20 A2999 RMK A01 T03630196  RH  038%=      5-min Rain = 0
KCH1 142311Z 11004KT 36/20 A2999 RMK A01 T03640195  RH  037%=      5-min Rain = 0
KCH1 142312Z 06007KT 36/20 A2999 RMK A01 T03640196  RH  038%=      5-min Rain = 0
KCH1 142313Z 06007KT 36/20 A2999 RMK A01 T03640195  RH  037%=      5-min Rain = 0
KCH1 142314Z 04006KT 36/20 A2999 RMK A01 T03620195  RH  038%=      5-min Rain = 0
KCH1 142315Z 07005KT 36/20 A2999 RMK A01 T03610195  RH  038%=      5-min Rain = 0
KCH1 142316Z 07005KT 36/20 A2999 RMK A01 T03590195  RH  038%=      5-min Rain = 0
KCH1 142317Z 08008KT 36/20 A2999 RMK A01 T03590198  RH  039%=      5-min Rain = 0
KCH1 142318Z 08009KT 36/20 A2999 RMK A01 T03600200  RH  039%=      5-min Rain = 0
KCH1 142319Z 07007KT 36/20 A2999 RMK A01 T03600199  RH  039%=      5-min Rain = 0
KCH1 142320Z 06006KT 36/20 A2999 RMK A01 T03590198  RH  039%=      5-min Rain = 0
KCH1 142321Z 06007KT 36/20 A2999 RMK A01 T03570200  RH  040%=      5-min Rain = 0
KCH1 142322Z 07006KT 36/20 A2999 RMK A01 T03560200  RH  040%=      5-min Rain = 0
KCH1 142323Z 09007KT 36/20 A2999 RMK A01 T03560200  RH  040%=      5-min Rain = 0
KCH1 142324Z 06008KT 36/20 A2999 RMK A01 T03560202  RH  041%=      5-min Rain = 0
KCH1 142325Z 09008KT 36/20 A2999 RMK A01 T03560199  RH  040%=      5-min Rain = 0
KCH1 142326Z 10008KT 35/20 A2999 RMK A01 T03540199  RH  040%=      5-min Rain = 0
KCH1 142327Z 11006KT 35/20 A2999 RMK A01 T03520197  RH  040%=      5-min Rain = 0
KCH1 142328Z 11006KT 35/20 A2999 RMK A01 T03510197  RH  041%=      5-min Rain = 0
KCH1 142329Z 11010KT 35/20 A2999 RMK A01 T03510197  RH  041%=      5-min Rain = 0
KCH1 142330Z 10009KT 35/20 A2999 RMK A01 T03510196  RH  040%=      5-min Rain = 0
KCH1 142331Z 09010KT 35/20 A2999 RMK A01 T03500196  RH  040%=      5-min Rain = 0
KCH1 142332Z 09008KT 35/20 A2999 RMK A01 T03500195  RH  040%=      5-min Rain = 0
KCH1 142333Z 09007KT 35/19 A2999 RMK A01 T03490194  RH  040%=      5-min Rain = 0
KCH1 142334Z 10005KT 35/20 A2999 RMK A01 T03490195  RH  040%=      5-min Rain = 0
KCH1 142335Z 11005KT 35/20 A2999 RMK A01 T03490196  RH  041%=      5-min Rain = 0
KCH1 142336Z 11006KT 35/19 A2999 RMK A01 T03490194  RH  040%=      5-min Rain = 0
KCH1 142337Z 10006KT 35/19 A2999 RMK A01 T03490194  RH  040%=      5-min Rain = 0
KCH1 142338Z 12007KT 35/19 A2999 RMK A01 T03500194  RH  040%=      5-min Rain = 0
KCH1 142339Z 14005KT 35/19 A2999 RMK A01 T03500192  RH  040%=      5-min Rain = 0
KCH1 142340Z 12005KT 35/19 A2999 RMK A01 T03510192  RH  039%=      5-min Rain = 0
KCH1 142341Z 12004KT 35/19 A2999 RMK A01 T03510193  RH  039%=      5-min Rain = 0
KCH1 142342Z 12005KT 35/19 A2999 RMK A01 T03520194  RH  039%=      5-min Rain = 0
KCH1 142343Z 12005KT 35/20 A2999 RMK A01 T03520195  RH  040%=      5-min Rain = 0
KCH1 142344Z 12005KT 35/20 A2999 RMK A01 T03520195  RH  040%=      5-min Rain = 0
KCH1 142345Z 12005KT 35/20 A2999 RMK A01 T03520196  RH  040%=      5-min Rain = 0
KCH1 142346Z 13005KT 35/20 A2999 RMK A01 T03520196  RH  040%=      5-min Rain = 0
KCH1 142347Z 11006KT 35/20 A2999 RMK A01 T03520195  RH  040%=      5-min Rain = 0
KCH1 142348Z 12005KT 35/19 A2999 RMK A01 T03520192  RH  039%=      5-min Rain = 0
KCH1 142349Z 11005KT 35/19 A2999 RMK A01 T03520191  RH  039%=      5-min Rain = 0
KCH1 142350Z 09005KT 35/20 A2999 RMK A01 T03530195  RH  040%=      5-min Rain = 0
KCH1 142351Z 11005KT 35/20 A2999 RMK A01 T03520198  RH  040%=      5-min Rain = 0
KCH1 142352Z 08006KT 35/20 A2999 RMK A01 T03520199  RH  041%=      5-min Rain = 0
KCH1 142353Z 09007KT 35/20 A2999 RMK A01 T03510199  RH  041%=      5-min Rain = 0
KCH1 142354Z 08006KT 35/20 A2999 RMK A01 T03500199  RH  041%=      5-min Rain = 0
KCH1 142355Z 08006KT 35/20 A2999 RMK A01 T03500199  RH  041%=      5-min Rain = 0
KCH1 142356Z 07006KT 35/20 A2999 RMK A01 T03490199  RH  041%=      5-min Rain = 0
KCH1 142357Z 07007KT 35/20 A2999 RMK A01 T03490200  RH  042%=      5-min Rain = 0
KCH1 142358Z 07007KT 35/20 A2999 RMK A01 T03490200  RH  042%=      5-min Rain = 0
KCH1 142359Z 08006KT 35/20 A2999 RMK A01 T03490198  RH  041%=      5-min Rain = 0
KCH1 150000Z 07006KT 35/20 A2999 RMK A01 T03490199  RH  042%=      5-min Rain = 0
KCH1 150001Z 07007KT 35/20 A2998 RMK A01 T03490199  RH  041%=      5-min Rain = 0
KCH1 150002Z 07007KT 35/20 A2998 RMK A01 T03490198  RH  041%=      5-min Rain = 0
KCH1 150003Z 08007KT 35/20 A2998 RMK A01 T03490197  RH  041%=      5-min Rain = 0
KCH1 150004Z 09005KT 35/20 A2999 RMK A01 T03490198  RH  041%=      5-min Rain = 0
KCH1 150005Z 09005KT 35/20 A2999 RMK A01 T03490198  RH  041%=      5-min Rain = 0
KCH1 150006Z 08006KT 35/20 A2999 RMK A01 T03500199  RH  041%=      5-min Rain = 0
KCH1 150007Z 08006KT 35/20 A2999 RMK A01 T03510199  RH  041%=      5-min Rain = 0
KCH1 150008Z 08005KT 35/20 A2999 RMK A01 T03510199  RH  041%=      5-min Rain = 0
KCH1 150009Z 07007KT 35/20 A2999 RMK A01 T03510197  RH  041%=      5-min Rain = 0
KCH1 150010Z 08006KT 35/20 A2999 RMK A01 T03520197  RH  040%=      5-min Rain = 0
KCH1 150011Z 08007KT 35/20 A2998 RMK A01 T03520197  RH  040%=      5-min Rain = 0
KCH1 150012Z 07006KT 35/20 A2998 RMK A01 T03520196  RH  040%=      5-min Rain = 0
KCH1 150013Z 07007KT 35/20 A2998 RMK A01 T03520198  RH  040%=      5-min Rain = 0
KCH1 150014Z 08007KT 35/20 A2998 RMK A01 T03520196  RH  040%=      5-min Rain = 0
KCH1 150015Z 07006KT 35/20 A2998 RMK A01 T03510196  RH  040%=      5-min Rain = 0
KCH1 150016Z 08005KT 35/20 A2998 RMK A01 T03510198  RH  041%=      5-min Rain = 0
KCH1 150017Z 07009KT 35/20 A2998 RMK A01 T03510197  RH  041%=      5-min Rain = 0
KCH1 150018Z 07008KT 35/20 A2998 RMK A01 T03510197  RH  040%=      5-min Rain = 0
KCH1 150019Z 07008KT 35/20 A2998 RMK A01 T03510197  RH  040%=      5-min Rain = 0
KCH1 150020Z 09009KT 35/20 A2998 RMK A01 T03510198  RH  041%=      5-min Rain = 0
KCH1 150021Z 09007KT 35/20 A2998 RMK A01 T03510197  RH  040%=      5-min Rain = 0
KCH1 150022Z 09008KT 35/20 A2998 RMK A01 T03500198  RH  041%=      5-min Rain = 0
KCH1 150023Z 08008KT 35/20 A2998 RMK A01 T03500198  RH  041%=      5-min Rain = 0
KCH1 150024Z 07008KT 35/20 A2998 RMK A01 T03500198  RH  041%=      5-min Rain = 0
KCH1 150025Z 07009KT 35/20 A2998 RMK A01 T03490199  RH  041%=      5-min Rain = 0
KCH1 150026Z 07008KT 35/20 A2998 RMK A01 T03490200  RH  042%=      5-min Rain = 0
KCH1 150027Z 07008KT 35/20 A2998 RMK A01 T03490201  RH  042%=      5-min Rain = 0
KCH1 150028Z 06008KT 35/20 A2998 RMK A01 T03490200  RH  042%=      5-min Rain = 0
KCH1 150029Z 07008KT 35/20 A2998 RMK A01 T03480201  RH  042%=      5-min Rain = 0
KCH1 150030Z 07008KT 35/20 A2998 RMK A01 T03480202  RH  043%=      5-min Rain = 0
KCH1 150031Z 06011KT 35/20 A2998 RMK A01 T03480200  RH  042%=      5-min Rain = 0
KCH1 150032Z 07011KT 35/20 A2998 RMK A01 T03470200  RH  042%=      5-min Rain = 0
KCH1 150033Z 08012KT 35/20 A2998 RMK A01 T03470200  RH  042%=      5-min Rain = 0
KCH1 150034Z 08010KT 35/20 A2998 RMK A01 T03460200  RH  042%=      5-min Rain = 0
KCH1 150035Z 07007KT 35/20 A2998 RMK A01 T03460201  RH  043%=      5-min Rain = 0
KCH1 150036Z 07006KT 35/20 A2998 RMK A01 T03450202  RH  043%=      5-min Rain = 0
KCH1 150037Z 07007KT 35/20 A2998 RMK A01 T03460202  RH  043%=      5-min Rain = 0
KCH1 150038Z 06010KT 35/20 A2998 RMK A01 T03460202  RH  043%=      5-min Rain = 0
KCH1 150039Z 06008KT 35/20 A2999 RMK A01 T03450201  RH  043%=      5-min Rain = 0
KCH1 150040Z 06009KT 34/20 A2999 RMK A01 T03440201  RH  043%=      5-min Rain = 0
KCH1 150041Z 06007KT 34/20 A2999 RMK A01 T03440201  RH  043%=      5-min Rain = 0
KCH1 150042Z 07009KT 34/20 A2999 RMK A01 T03440202  RH  043%=      5-min Rain = 0
KCH1 150043Z 07010KT 34/20 A2999 RMK A01 T03430201  RH  043%=      5-min Rain = 0
KCH1 150044Z 07009KT 34/20 A2999 RMK A01 T03430200  RH  043%=      5-min Rain = 0
KCH1 150045Z 08009KT 34/20 A2999 RMK A01 T03430200  RH  043%=      5-min Rain = 0
KCH1 150046Z 08008KT 34/20 A2999 RMK A01 T03420200  RH  043%=      5-min Rain = 0
KCH1 150047Z 07009KT 34/20 A2999 RMK A01 T03420200  RH  043%=      5-min Rain = 0
KCH1 150048Z 07009KT 34/20 A2999 RMK A01 T03420201  RH  044%=      5-min Rain = 0
KCH1 150049Z 07009KT 34/20 A2999 RMK A01 T03410201  RH  044%=      5-min Rain = 0
KCH1 150050Z 07009KT 34/20 A2999 RMK A01 T03410201  RH  044%=      5-min Rain = 0
KCH1 150051Z 07007KT 34/20 A2999 RMK A01 T03400201  RH  044%=      5-min Rain = 0
KCH1 150052Z 07006KT 34/20 A2999 RMK A01 T03390202  RH  045%=      5-min Rain = 0
KCH1 150053Z 07007KT 34/20 A2999 RMK A01 T03380202  RH  045%=      5-min Rain = 0
KCH1 150054Z 07006KT 34/20 A2999 RMK A01 T03380202  RH  045%=      5-min Rain = 0
KCH1 150055Z 07007KT 34/20 A2999 RMK A01 T03370202  RH  045%=      5-min Rain = 0
KCH1 150056Z 07007KT 34/20 A2999 RMK A01 T03370202  RH  045%=      5-min Rain = 0
KCH1 150057Z 07008KT 34/20 A2999 RMK A01 T03370202  RH  045%=      5-min Rain = 0
KCH1 150058Z 07007KT 34/20 A2999 RMK A01 T03360201  RH  045%=      5-min Rain = 0
KCH1 150059Z 07006KT 34/20 A2999 RMK A01 T03360202  RH  045%=      5-min Rain = 0
KCH1 150100Z 07008KT 34/20 A2999 RMK A01 T03350202  RH  046%=      5-min Rain = 0
KCH1 150101Z 07008KT 34/20 A2999 RMK A01 T03350202  RH  046%=      5-min Rain = 0
KCH1 150102Z 07008KT 34/20 A2999 RMK A01 T03350201  RH  046%=      5-min Rain = 0
KCH1 150103Z 07010KT 34/20 A2999 RMK A01 T03350201  RH  045%=      5-min Rain = 0
KCH1 150104Z 07008KT 34/20 A2999 RMK A01 T03350201  RH  045%=      5-min Rain = 0
KCH1 150105Z 07008KT 33/20 A30 RMK A01 T03340201  RH  045%=      5-min Rain = 0
KCH1 150106Z 07007KT 33/20 A30 RMK A01 T03340201  RH  046%=      5-min Rain = 0
KCH1 150107Z 07009KT 33/20 A30 RMK A01 T03340201  RH  046%=      5-min Rain = 0
KCH1 150108Z 07008KT 33/20 A30 RMK A01 T03330200  RH  046%=      5-min Rain = 0
KCH1 150109Z 07006KT 33/20 A30 RMK A01 T03330201  RH  046%=      5-min Rain = 0
KCH1 150110Z 07009KT 33/20 A30 RMK A01 T03320201  RH  046%=      5-min Rain = 0
KCH1 150111Z 07008KT 33/20 A30 RMK A01 T03320200  RH  046%=      5-min Rain = 0
KCH1 150112Z 07009KT 33/20 A30 RMK A01 T03320200  RH  046%=      5-min Rain = 0
KCH1 150113Z 07009KT 33/20 A30 RMK A01 T03320200  RH  046%=      5-min Rain = 0
KCH1 150114Z 07007KT 33/20 A30 RMK A01 T03320201  RH  046%=      5-min Rain = 0
KCH1 150115Z 07009KT 33/20 A30 RMK A01 T03310200  RH  046%=      5-min Rain = 0
KCH1 150116Z 07009KT 33/20 A30 RMK A01 T03310200  RH  046%=      5-min Rain = 0
KCH1 150117Z 07008KT 33/20 A30 RMK A01 T03310201  RH  046%=      5-min Rain = 0
KCH1 150118Z 07007KT 33/20 A30 RMK A01 T03300200  RH  047%=      5-min Rain = 0
KCH1 150119Z 07008KT 33/20 A30 RMK A01 T03300201  RH  047%=      5-min Rain = 0
KCH1 150120Z 07008KT 33/20 A30 RMK A01 T03290201  RH  047%=      5-min Rain = 0
KCH1 150121Z 07009KT 33/20 A30 RMK A01 T03290201  RH  047%=      5-min Rain = 0
KCH1 150122Z 07008KT 33/20 A30 RMK A01 T03290201  RH  047%=      5-min Rain = 0
KCH1 150123Z 06008KT 33/20 A30 RMK A01 T03290201  RH  047%=      5-min Rain = 0
KCH1 150124Z 07009KT 33/20 A30 RMK A01 T03280201  RH  047%=      5-min Rain = 0
KCH1 150125Z 07008KT 33/20 A30 RMK A01 T03280201  RH  047%=      5-min Rain = 0
KCH1 150126Z 07008KT 33/20 A30 RMK A01 T03280201  RH  047%=      5-min Rain = 0
KCH1 150127Z 07008KT 33/20 A30 RMK A01 T03280201  RH  047%=      5-min Rain = 0
KCH1 150128Z 07008KT 33/20 A30 RMK A01 T03280201  RH  047%=      5-min Rain = 0
KCH1 150129Z 07008KT 33/20 A30 RMK A01 T03280201  RH  047%=      5-min Rain = 0
KCH1 150130Z 07007KT 33/20 A3001 RMK A01 T03280201  RH  047%=      5-min Rain = 0
KCH1 150131Z 07006KT 33/20 A3001 RMK A01 T03280201  RH  047%=      5-min Rain = 0
KCH1 150132Z 07007KT 33/20 A3001 RMK A01 T03270201  RH  048%=      5-min Rain = 0
KCH1 150133Z 07007KT 33/20 A3001 RMK A01 T03270201  RH  048%=      5-min Rain = 0
KCH1 150134Z 07007KT 33/20 A3001 RMK A01 T03260201  RH  048%=      5-min Rain = 0
KCH1 150135Z 07006KT 33/20 A3001 RMK A01 T03250201  RH  048%=      5-min Rain = 0
KCH1 150136Z 07006KT 33/20 A3001 RMK A01 T03250201  RH  048%=      5-min Rain = 0
KCH1 150137Z 07008KT 32/20 A3001 RMK A01 T03240201  RH  048%=      5-min Rain = 0
KCH1 150138Z 07007KT 32/20 A3001 RMK A01 T03240201  RH  048%=      5-min Rain = 0
KCH1 150139Z 07008KT 32/20 A3001 RMK A01 T03240201  RH  048%=      5-min Rain = 0
KCH1 150140Z 07008KT 32/20 A3001 RMK A01 T03240201  RH  048%=      5-min Rain = 0
KCH1 150141Z 07008KT 32/20 A3001 RMK A01 T03240201  RH  048%=      5-min Rain = 0
KCH1 150142Z 07009KT 32/20 A3001 RMK A01 T03230201  RH  048%=      5-min Rain = 0
KCH1 150143Z 07009KT 32/20 A3001 RMK A01 T03230201  RH  048%=      5-min Rain = 0
KCH1 150144Z 07008KT 32/20 A3001 RMK A01 T03230201  RH  048%=      5-min Rain = 0
KCH1 150145Z 07007KT 32/20 A3001 RMK A01 T03230201  RH  049%=      5-min Rain = 0
KCH1 150146Z 07008KT 32/20 A3001 RMK A01 T03230201  RH  049%=      5-min Rain = 0
KCH1 150147Z 07008KT 32/20 A3001 RMK A01 T03230201  RH  049%=      5-min Rain = 0
KCH1 150148Z 07009KT 32/20 A3001 RMK A01 T03230202  RH  049%=      5-min Rain = 0
KCH1 150149Z 07008KT 32/20 A3001 RMK A01 T03230201  RH  049%=      5-min Rain = 0
KCH1 150150Z 07008KT 32/20 A3001 RMK A01 T03230202  RH  049%=      5-min Rain = 0
KCH1 150151Z 07008KT 32/20 A3001 RMK A01 T03230202  RH  049%=      5-min Rain = 0
KCH1 150152Z 07008KT 32/20 A3002 RMK A01 T03230202  RH  049%=      5-min Rain = 0
KCH1 150153Z 07007KT 32/20 A3002 RMK A01 T03230202  RH  049%=      5-min Rain = 0
KCH1 150154Z 07008KT 32/20 A3002 RMK A01 T03230202  RH  049%=      5-min Rain = 0
KCH1 150155Z 07007KT 32/20 A3002 RMK A01 T03220202  RH  049%=      5-min Rain = 0
KCH1 150156Z 07007KT 32/20 A3002 RMK A01 T03220202  RH  049%=      5-min Rain = 0
KCH1 150157Z 08007KT 32/20 A3002 RMK A01 T03210202  RH  050%=      5-min Rain = 0
KCH1 150158Z 07007KT 32/20 A3002 RMK A01 T03200202  RH  050%=      5-min Rain = 0
KCH1 150159Z 07007KT 32/20 A3002 RMK A01 T03200202  RH  050%=      5-min Rain = 0
KCH1 150200Z 07008KT 32/20 A3002 RMK A01 T03200202  RH  050%=      5-min Rain = 0
KCH1 150201Z 07007KT 32/20 A3002 RMK A01 T03200202  RH  050%=      5-min Rain = 0
KCH1 150202Z 07008KT 32/20 A3002 RMK A01 T03200202  RH  050%=      5-min Rain = 0
KCH1 150203Z 07007KT 32/20 A3002 RMK A01 T03200202  RH  050%=      5-min Rain = 0
KCH1 150204Z 07008KT 32/20 A3002 RMK A01 T03190203  RH  050%=      5-min Rain = 0
KCH1 150205Z 07008KT 32/20 A3002 RMK A01 T03190203  RH  050%=      5-min Rain = 0
KCH1 150206Z 07008KT 32/20 A3002 RMK A01 T03190202  RH  050%=      5-min Rain = 0
KCH1 150207Z 07008KT 32/20 A3002 RMK A01 T03200203  RH  050%=      5-min Rain = 0
KCH1 150208Z 07008KT 32/20 A3002 RMK A01 T03200203  RH  050%=      5-min Rain = 0
KCH1 150209Z 07010KT 32/20 A3002 RMK A01 T03190203  RH  050%=      5-min Rain = 0
KCH1 150210Z 07011KT 32/20 A3002 RMK A01 T03190203  RH  050%=      5-min Rain = 0
KCH1 150211Z 07010G15KT 32/20 A3002 RMK A01 T03200203  RH  050%=      5-min Rain = 0
KCH1 150212Z 07012KT 32/20 A3003 RMK A01 T03200203  RH  050%=      5-min Rain = 0
KCH1 150213Z 07011KT 32/20 A3003 RMK A01 T03210203  RH  050%=      5-min Rain = 0
KCH1 150214Z 06012KT 32/20 A3002 RMK A01 T03210203  RH  050%=      5-min Rain = 0
KCH1 150215Z 06013KT 32/20 A3002 RMK A01 T03200203  RH  050%=      5-min Rain = 0
KCH1 150216Z 07010KT 32/20 A3003 RMK A01 T03200203  RH  050%=      5-min Rain = 0
KCH1 150217Z 07009KT 32/20 A3003 RMK A01 T03190203  RH  050%=      5-min Rain = 0
KCH1 150218Z 08008KT 32/20 A3003 RMK A01 T03190203  RH  050%=      5-min Rain = 0
KCH1 150219Z 07007KT 32/20 A3003 RMK A01 T03190202  RH  050%=      5-min Rain = 0
KCH1 150220Z 07009KT 32/20 A3003 RMK A01 T03180198  RH  049%=      5-min Rain = 0
KCH1 150221Z 07008KT 32/20 A3003 RMK A01 T03190195  RH  048%=      5-min Rain = 0
KCH1 150222Z 08008KT 32/19 A3003 RMK A01 T03180193  RH  047%=      5-min Rain = 0
KCH1 150223Z 08006KT 32/19 A3003 RMK A01 T03180192  RH  047%=      5-min Rain = 0
KCH1 150224Z 08006KT 32/19 A3003 RMK A01 T03190193  RH  047%=      5-min Rain = 0
KCH1 150225Z 09005KT 32/19 A3003 RMK A01 T03190192  RH  047%=      5-min Rain = 0
KCH1 150226Z 10004KT 32/19 A3003 RMK A01 T03180192  RH  047%=      5-min Rain = 0
KCH1 150227Z 10003KT 32/19 A3003 RMK A01 T03180191  RH  047%=      5-min Rain = 0
KCH1 150228Z 11003KT 32/19 A3003 RMK A01 T03190191  RH  047%=      5-min Rain = 0
KCH1 150229Z 12003KT 32/19 A3004 RMK A01 T03180192  RH  047%=      5-min Rain = 0
KCH1 150230Z 11002KT 32/19 A3004 RMK A01 T03170192  RH  047%=      5-min Rain = 0
KCH1 150231Z 12000KT 32/19 A3004 RMK A01 T03170192  RH  048%=      5-min Rain = 0
KCH1 150232Z 16002KT 32/19 A3004 RMK A01 T03160191  RH  047%=      5-min Rain = 0
KCH1 150233Z 16003KT 32/19 A3004 RMK A01 T03160190  RH  047%=      5-min Rain = 0
KCH1 150234Z 17004KT 32/19 A3004 RMK A01 T03160188  RH  047%=      5-min Rain = 0
KCH1 150235Z 16004KT 32/19 A3004 RMK A01 T03160189  RH  047%=      5-min Rain = 0
KCH1 150236Z 16005KT 32/19 A3004 RMK A01 T03160189  RH  047%=      5-min Rain = 0
KCH1 150237Z 14003KT 32/19 A3004 RMK A01 T03160189  RH  047%=      5-min Rain = 0
KCH1 150238Z 14004KT 32/19 A3004 RMK A01 T03150189  RH  047%=      5-min Rain = 0
KCH1 150239Z 15003KT 31/19 A3004 RMK A01 T03140189  RH  047%=      5-min Rain = 0
KCH1 150240Z 16004KT 31/19 A3004 RMK A01 T03130189  RH  048%=      5-min Rain = 0
KCH1 150241Z 16004KT 31/19 A3004 RMK A01 T03130189  RH  048%=      5-min Rain = 0
KCH1 150242Z 16005KT 31/19 A3004 RMK A01 T03120189  RH  048%=      5-min Rain = 0
KCH1 150243Z 15005KT 31/19 A3005 RMK A01 T03120189  RH  048%=      5-min Rain = 0
KCH1 150244Z 15006KT 31/19 A3005 RMK A01 T03110189  RH  048%=      5-min Rain = 0
KCH1 150245Z 13007KT 31/19 A3005 RMK A01 T03110189  RH  048%=      5-min Rain = 0
KCH1 150246Z 13007KT 31/19 A3005 RMK A01 T03100189  RH  048%=      5-min Rain = 0
KCH1 150247Z 12009KT 31/19 A3005 RMK A01 T03100189  RH  049%=      5-min Rain = 0
KCH1 150248Z 12008KT 31/19 A3005 RMK A01 T03100190  RH  049%=      5-min Rain = 0
KCH1 150249Z 13007KT 31/19 A3005 RMK A01 T03090189  RH  049%=      5-min Rain = 0
KCH1 150250Z 13008KT 31/19 A3006 RMK A01 T03090186  RH  048%=      5-min Rain = 0
KCH1 150251Z 13009KT 31/19 A3006 RMK A01 T03090186  RH  048%=      5-min Rain = 0
KCH1 150252Z 12011KT 31/19 A3006 RMK A01 T03090185  RH  047%=      5-min Rain = 0
KCH1 150253Z 13009KT 31/18 A3006 RMK A01 T03090183  RH  047%=      5-min Rain = 0
KCH1 150254Z 13008KT 31/18 A3006 RMK A01 T03100183  RH  047%=      5-min Rain = 0
KCH1 150255Z 13010KT 31/18 A3006 RMK A01 T03100183  RH  047%=      5-min Rain = 0
KCH1 150256Z 13009KT 31/18 A3006 RMK A01 T03100183  RH  047%=      5-min Rain = 0
KCH1 150257Z 14008KT 31/18 A3006 RMK A01 T03100183  RH  047%=      5-min Rain = 0
KCH1 150258Z 14007KT 31/18 A3006 RMK A01 T03090182  RH  047%=      5-min Rain = 0
KCH1 150259Z 14007KT 31/18 A3006 RMK A01 T03100183  RH  047%=      5-min Rain = 0
KCH1 150300Z 13007KT 31/18 A3006 RMK A01 T03090183  RH  047%=      5-min Rain = 0
KCH1 150301Z 13007KT 31/18 A3007 RMK A01 T03100183  RH  047%=      5-min Rain = 0
KCH1 150302Z 13009KT 31/18 A3007 RMK A01 T03100183  RH  047%=      5-min Rain = 0
KCH1 150303Z 13010KT 31/18 A3007 RMK A01 T03100183  RH  047%=      5-min Rain = 0
KCH1 150304Z 12010KT 31/18 A3007 RMK A01 T03100183  RH  047%=      5-min Rain = 0
KCH1 150305Z 12010KT 31/18 A3007 RMK A01 T03100184  RH  047%=      5-min Rain = 0
KCH1 150306Z 13011KT 31/19 A3007 RMK A01 T03100185  RH  047%=      5-min Rain = 0
KCH1 150307Z 13010KT 31/19 A3007 RMK A01 T03100185  RH  047%=      5-min Rain = 0
KCH1 150308Z 13010KT 31/18 A3007 RMK A01 T03110184  RH  047%=      5-min Rain = 0
KCH1 150309Z 13009KT 31/18 A3007 RMK A01 T03110184  RH  047%=      5-min Rain = 0
KCH1 150310Z 13008KT 31/18 A3007 RMK A01 T03100184  RH  047%=      5-min Rain = 0
KCH1 150311Z 14008KT 31/18 A3007 RMK A01 T03090183  RH  047%=      5-min Rain = 0
KCH1 150312Z 14008KT 31/18 A3007 RMK A01 T03100184  RH  047%=      5-min Rain = 0
KCH1 150313Z 13007KT 31/18 A3008 RMK A01 T03090184  RH  047%=      5-min Rain = 0
KCH1 150314Z 13007KT 31/18 A3008 RMK A01 T03090184  RH  047%=      5-min Rain = 0
KCH1 150315Z 13007KT 31/18 A3008 RMK A01 T03080184  RH  048%=      5-min Rain = 0
KCH1 150316Z 13008KT 31/18 A3008 RMK A01 T03070184  RH  048%=      5-min Rain = 0
KCH1 150317Z 13008KT 31/19 A3008 RMK A01 T03070185  RH  048%=      5-min Rain = 0
KCH1 150318Z 13009KT 31/19 A3008 RMK A01 T03070185  RH  048%=      5-min Rain = 0
KCH1 150319Z 13008KT 31/19 A3008 RMK A01 T03070186  RH  048%=      5-min Rain = 0
KCH1 150320Z 13007KT 31/19 A3008 RMK A01 T03070186  RH  049%=      5-min Rain = 0
KCH1 150321Z 13006KT 31/19 A3008 RMK A01 T03060186  RH  049%=      5-min Rain = 0
KCH1 150322Z 13008KT 31/19 A3008 RMK A01 T03060187  RH  049%=      5-min Rain = 0
KCH1 150323Z 14007KT 31/19 A3008 RMK A01 T03060187  RH  049%=      5-min Rain = 0
KCH1 150324Z 13007KT 31/19 A3008 RMK A01 T03050187  RH  049%=      5-min Rain = 0
KCH1 150325Z 13005KT 31/19 A3008 RMK A01 T03050188  RH  050%=      5-min Rain = 0
KCH1 150326Z 13006KT 30/19 A3008 RMK A01 T03040189  RH  050%=      5-min Rain = 0
KCH1 150327Z 13007KT 30/19 A3008 RMK A01 T03040190  RH  051%=      5-min Rain = 0
KCH1 150328Z 14007KT 30/19 A3008 RMK A01 T03040191  RH  051%=      5-min Rain = 0
KCH1 150329Z 13008KT 30/19 A3008 RMK A01 T03030192  RH  051%=      5-min Rain = 0
KCH1 150330Z 12008KT 30/19 A3008 RMK A01 T03030192  RH  051%=      5-min Rain = 0
KCH1 150331Z 13007KT 30/19 A3008 RMK A01 T03030193  RH  052%=      5-min Rain = 0
KCH1 150332Z 13007KT 30/19 A3008 RMK A01 T03030193  RH  052%=      5-min Rain = 0
KCH1 150333Z 13006KT 30/20 A3008 RMK A01 T03020195  RH  052%=      5-min Rain = 0
KCH1 150334Z 14006KT 30/20 A3008 RMK A01 T03020195  RH  053%=      5-min Rain = 0
KCH1 150335Z 14005KT 30/20 A3009 RMK A01 T03020195  RH  053%=      5-min Rain = 0
KCH1 150336Z 14005KT 30/20 A3009 RMK A01 T03020196  RH  053%=      5-min Rain = 0
KCH1 150337Z 13006KT 30/20 A3009 RMK A01 T03010196  RH  053%=      5-min Rain = 0
KCH1 150338Z 13004KT 30/20 A3009 RMK A01 T03010196  RH  053%=      5-min Rain = 0
KCH1 150339Z 14005KT 30/20 A3009 RMK A01 T03000196  RH  054%=      5-min Rain = 0
KCH1 150340Z 14005KT 30/20 A3009 RMK A01 T03000196  RH  054%=      5-min Rain = 0
KCH1 150341Z 14004KT 30/20 A3009 RMK A01 T03000197  RH  054%=      5-min Rain = 0
KCH1 150342Z 14003KT 30/20 A3009 RMK A01 T03000197  RH  054%=      5-min Rain = 0
KCH1 150343Z 13003KT 30/20 A3009 RMK A01 T02990197  RH  054%=      5-min Rain = 0
KCH1 150344Z 14004KT 30/20 A3009 RMK A01 T02990197  RH  054%=      5-min Rain = 0
KCH1 150345Z 14003KT 30/20 A3009 RMK A01 T02980197  RH  055%=      5-min Rain = 0
KCH1 150346Z 13004KT 30/20 A3009 RMK A01 T02980197  RH  055%=      5-min Rain = 0
KCH1 150347Z 14004KT 30/20 A3009 RMK A01 T02970198  RH  055%=      5-min Rain = 0
KCH1 150348Z 14005KT 30/20 A3009 RMK A01 T02970198  RH  055%=      5-min Rain = 0
KCH1 150349Z 15004KT 30/20 A3009 RMK A01 T02970198  RH  055%=      5-min Rain = 0
KCH1 150350Z 15003KT 30/20 A3009 RMK A01 T02960198  RH  056%=      5-min Rain = 0
KCH1 150351Z 15004KT 30/20 A3009 RMK A01 T02960198  RH  056%=      5-min Rain = 0
KCH1 150352Z 14004KT 30/20 A3009 RMK A01 T02960198  RH  056%=      5-min Rain = 0
KCH1 150353Z 14004KT 30/20 A3009 RMK A01 T02950199  RH  056%=      5-min Rain = 0
KCH1 150354Z 14004KT 30/20 A3009 RMK A01 T02950199  RH  056%=      5-min Rain = 0
KCH1 150355Z 14005KT 29/20 A3009 RMK A01 T02940199  RH  056%=      5-min Rain = 0
KCH1 150356Z 13004KT 29/20 A3009 RMK A01 T02940199  RH  057%=      5-min Rain = 0
KCH1 150357Z 13004KT 29/20 A3009 RMK A01 T02940199  RH  057%=      5-min Rain = 0
KCH1 150358Z 12004KT 29/20 A3009 RMK A01 T02940200  RH  057%=      5-min Rain = 0
KCH1 150359Z 12004KT 30/20 A3009 RMK A01 T02950201  RH  057%=      5-min Rain = 0
KCH1 150400Z 13004KT 29/20 A3009 RMK A01 T02940201  RH  057%=      5-min Rain = 0
KCH1 150401Z 13004KT 29/20 A3009 RMK A01 T02940201  RH  057%=      5-min Rain = 0
KCH1 150402Z 12003KT 29/20 A3009 RMK A01 T02940201  RH  057%=      5-min Rain = 0
KCH1 150403Z 12004KT 29/20 A3009 RMK A01 T02930201  RH  057%=      5-min Rain = 0
KCH1 150404Z 12004KT 29/20 A3009 RMK A01 T02930201  RH  058%=      5-min Rain = 0
KCH1 150405Z 13004KT 29/20 A3009 RMK A01 T02930202  RH  058%=      5-min Rain = 0
KCH1 150406Z 12004KT 29/20 A3009 RMK A01 T02920202  RH  058%=      5-min Rain = 0
KCH1 150407Z 12004KT 29/20 A3009 RMK A01 T02920202  RH  059%=      5-min Rain = 0
KCH1 150408Z 13004KT 29/20 A3009 RMK A01 T02920203  RH  059%=      5-min Rain = 0
KCH1 150409Z 11006KT 29/20 A301 RMK A01 T02910203  RH  059%=      5-min Rain = 0
KCH1 150410Z 12006KT 29/20 A301 RMK A01 T02910203  RH  059%=      5-min Rain = 0
KCH1 150411Z 12005KT 29/20 A301 RMK A01 T02910203  RH  059%=      5-min Rain = 0
KCH1 150412Z 12005KT 29/20 A301 RMK A01 T02910203  RH  059%=      5-min Rain = 0
KCH1 150413Z 13006KT 29/20 A301 RMK A01 T02910204  RH  059%=      5-min Rain = 0
KCH1 150414Z 12006KT 29/20 A301 RMK A01 T02910204  RH  059%=      5-min Rain = 0
KCH1 150415Z 12006KT 29/20 A301 RMK A01 T02910204  RH  060%=      5-min Rain = 0
KCH1 150416Z 13009KT 29/20 A301 RMK A01 T02910204  RH  060%=      5-min Rain = 0
KCH1 150417Z 13008KT 29/20 A3009 RMK A01 T02910204  RH  060%=      5-min Rain = 0
KCH1 150418Z 12008KT 29/20 A3009 RMK A01 T02910204  RH  059%=      5-min Rain = 0
KCH1 150419Z 12007KT 29/21 A3009 RMK A01 T02910205  RH  059%=      5-min Rain = 0
KCH1 150420Z 13007KT 29/21 A301 RMK A01 T02910205  RH  060%=      5-min Rain = 0
KCH1 150421Z 13007KT 29/21 A301 RMK A01 T02910205  RH  060%=      5-min Rain = 0
KCH1 150422Z 12008KT 29/21 A301 RMK A01 T02920205  RH  060%=      5-min Rain = 0
KCH1 150423Z 12007KT 29/21 A3009 RMK A01 T02910205  RH  060%=      5-min Rain = 0
KCH1 150424Z 12008KT 29/21 A3009 RMK A01 T02910205  RH  060%=      5-min Rain = 0
KCH1 150425Z 12008KT 29/21 A3009 RMK A01 T02910205  RH  060%=      5-min Rain = 0
KCH1 150426Z 13009KT 29/21 A3009 RMK A01 T02910206  RH  060%=      5-min Rain = 0
KCH1 150427Z 13008KT 29/21 A3009 RMK A01 T02910205  RH  060%=      5-min Rain = 0
KCH1 150428Z 12008KT 29/21 A3009 RMK A01 T02910206  RH  060%=      5-min Rain = 0
KCH1 150429Z 12007KT 29/21 A3009 RMK A01 T02910206  RH  060%=      5-min Rain = 0
KCH1 150430Z 13008KT 29/21 A3009 RMK A01 T02910206  RH  060%=      5-min Rain = 0
KCH1 150431Z 13008KT 29/21 A3009 RMK A01 T02910206  RH  060%=      5-min Rain = 0
KCH1 150432Z 12007KT 29/21 A3009 RMK A01 T02910206  RH  060%=      5-min Rain = 0
KCH1 150433Z 12007KT 29/21 A3009 RMK A01 T02900206  RH  061%=      5-min Rain = 0
KCH1 150434Z 12008KT 29/21 A3009 RMK A01 T02900207  RH  061%=      5-min Rain = 0
KCH1 150435Z 12009KT 29/21 A3009 RMK A01 T02890206  RH  061%=      5-min Rain = 0
KCH1 150436Z 11007KT 29/21 A3009 RMK A01 T02900206  RH  061%=      5-min Rain = 0
KCH1 150437Z 12008KT 29/21 A3009 RMK A01 T02890206  RH  061%=      5-min Rain = 0
KCH1 150438Z 12009KT 29/21 A3009 RMK A01 T02900207  RH  061%=      5-min Rain = 0
KCH1 150439Z 12009KT 29/21 A3009 RMK A01 T02890206  RH  061%=      5-min Rain = 0
KCH1 150440Z 12008KT 29/21 A3009 RMK A01 T02900207  RH  061%=      5-min Rain = 0
KCH1 150441Z 12008KT 29/21 A3009 RMK A01 T02900207  RH  061%=      5-min Rain = 0
KCH1 150442Z 12008KT 29/21 A3009 RMK A01 T02890206  RH  061%=      5-min Rain = 0
KCH1 150443Z 12007KT 29/21 A301 RMK A01 T02890207  RH  061%=      5-min Rain = 0
KCH1 150444Z 11007KT 29/21 A301 RMK A01 T02890206  RH  061%=      5-min Rain = 0
KCH1 150445Z 11006KT 29/21 A301 RMK A01 T02890207  RH  061%=      5-min Rain = 0
KCH1 150446Z 12007KT 29/21 A301 RMK A01 T02880206  RH  061%=      5-min Rain = 0
KCH1 150447Z 11007KT 29/21 A301 RMK A01 T02880206  RH  061%=      5-min Rain = 0
KCH1 150448Z 11007KT 29/21 A301 RMK A01 T02880207  RH  061%=      5-min Rain = 0
KCH1 150449Z 12009KT 29/21 A301 RMK A01 T02880206  RH  061%=      5-min Rain = 0
KCH1 150450Z 11010KT 29/21 A301 RMK A01 T02880206  RH  061%=      5-min Rain = 0
KCH1 150451Z 12008KT 29/21 A301 RMK A01 T02880206  RH  061%=      5-min Rain = 0
KCH1 150452Z 11008KT 29/21 A301 RMK A01 T02880206  RH  061%=      5-min Rain = 0
KCH1 150453Z 11009KT 29/21 A301 RMK A01 T02870206  RH  061%=      5-min Rain = 0
KCH1 150454Z 11007KT 29/21 A301 RMK A01 T02870206  RH  061%=      5-min Rain = 0
KCH1 150455Z 12008KT 29/21 A301 RMK A01 T02870206  RH  062%=      5-min Rain = 0
KCH1 150456Z 11007KT 29/21 A301 RMK A01 T02870206  RH  062%=      5-min Rain = 0
KCH1 150457Z 11006KT 29/21 A301 RMK A01 T02860206  RH  062%=      5-min Rain = 0
KCH1 150458Z 11007KT 29/21 A301 RMK A01 T02860205  RH  062%=      5-min Rain = 0
KCH1 150459Z 11006KT 29/21 A301 RMK A01 T02850205  RH  062%=      5-min Rain = 0

Page generated in 0.1209 seconds.